Observation data for Amarillo 15 North Northwest on 01/18/2019      Previous  Date  Next       Current Mesonet Observations  Soil Data  Daily Summary Page  Observations in Plain Language
KAM3 180600Z 21019KT 10/M04 A2993 RMK A01 T00981041  RH  038%=      5-min Rain = 0
KAM3 180601Z 21018G23KT 10/M04 A2993 RMK A01 T00981041  RH  037%=      5-min Rain = 0
KAM3 180602Z 21017KT 10/M04 A2993 RMK A01 T00981041  RH  037%=      5-min Rain = 0
KAM3 180603Z 21016KT 10/M04 A2993 RMK A01 T00981040  RH  038%=      5-min Rain = 0
KAM3 180604Z 21017KT 10/M04 A2993 RMK A01 T00961041  RH  038%=      5-min Rain = 0
KAM3 180605Z 21016KT 10/M04 A2993 RMK A01 T00961040  RH  038%=      5-min Rain = 0
KAM3 180606Z 21016KT 10/M04 A2993 RMK A01 T00951041  RH  038%=      5-min Rain = 0
KAM3 180607Z 21014KT 09/M04 A2993 RMK A01 T00941041  RH  038%=      5-min Rain = 0
KAM3 180608Z 21016KT 09/M04 A2993 RMK A01 T00931041  RH  039%=      5-min Rain = 0
KAM3 180609Z 21017KT 09/M04 A2993 RMK A01 T00921041  RH  039%=      5-min Rain = 0
KAM3 180610Z 21015KT 09/M04 A2993 RMK A01 T00921041  RH  039%=      5-min Rain = 0
KAM3 180611Z 21016G21KT 09/M04 A2993 RMK A01 T00921041  RH  039%=      5-min Rain = 0
KAM3 180612Z 21017KT 09/M04 A2993 RMK A01 T00911041  RH  039%=      5-min Rain = 0
KAM3 180613Z 21016KT 09/M04 A2992 RMK A01 T00911041  RH  039%=      5-min Rain = 0
KAM3 180614Z 21017KT 09/M04 A2992 RMK A01 T00911041  RH  039%=      5-min Rain = 0
KAM3 180615Z 21017KT 09/M04 A2992 RMK A01 T00911041  RH  039%=      5-min Rain = 0
KAM3 180616Z 21016KT 09/M04 A2992 RMK A01 T00911041  RH  039%=      5-min Rain = 0
KAM3 180617Z 21015KT 09/M04 A2992 RMK A01 T00901041  RH  039%=      5-min Rain = 0
KAM3 180618Z 21016KT 09/M04 A2992 RMK A01 T00891041  RH  040%=      5-min Rain = 0
KAM3 180619Z 21016KT 09/M04 A2992 RMK A01 T00881041  RH  040%=      5-min Rain = 0
KAM3 180620Z 21016KT 09/M04 A2992 RMK A01 T00881040  RH  040%=      5-min Rain = 0
KAM3 180621Z 21016KT 09/M04 A2992 RMK A01 T00871040  RH  040%=      5-min Rain = 0
KAM3 180622Z 21016KT 09/M04 A2992 RMK A01 T00871041  RH  040%=      5-min Rain = 0
KAM3 180623Z 21016KT 09/M04 A2992 RMK A01 T00871041  RH  040%=      5-min Rain = 0
KAM3 180624Z 21017KT 09/M04 A2992 RMK A01 T00871040  RH  040%=      5-min Rain = 0
KAM3 180625Z 21017KT 09/M04 A2992 RMK A01 T00871040  RH  040%=      5-min Rain = 0
KAM3 180626Z 21015KT 09/M04 A2992 RMK A01 T00881040  RH  040%=      5-min Rain = 0
KAM3 180627Z 21015KT 09/M04 A2992 RMK A01 T00881040  RH  040%=      5-min Rain = 0
KAM3 180628Z 21015G20KT 09/M04 A2992 RMK A01 T00871040  RH  040%=      5-min Rain = 0
KAM3 180629Z 21015KT 09/M04 A2992 RMK A01 T00861040  RH  041%=      5-min Rain = 0
KAM3 180630Z 21016KT 09/M04 A2992 RMK A01 T00861040  RH  041%=      5-min Rain = 0
KAM3 180631Z 21015KT 09/M04 A2992 RMK A01 T00871039  RH  041%=      5-min Rain = 0
KAM3 180632Z 21015KT 09/M04 A2992 RMK A01 T00871039  RH  041%=      5-min Rain = 0
KAM3 180633Z 21015KT 09/M04 A2992 RMK A01 T00861039  RH  041%=      5-min Rain = 0
KAM3 180634Z 21015KT 09/M04 A2992 RMK A01 T00861039  RH  041%=      5-min Rain = 0
KAM3 180635Z 21015KT 09/M04 A2992 RMK A01 T00851039  RH  041%=      5-min Rain = 0
KAM3 180636Z 21016KT 09/M04 A2992 RMK A01 T00851039  RH  041%=      5-min Rain = 0
KAM3 180637Z 21015KT 09/M04 A2992 RMK A01 T00851038  RH  042%=      5-min Rain = 0
KAM3 180638Z 21016G21KT 08/M04 A2992 RMK A01 T00841039  RH  042%=      5-min Rain = 0
KAM3 180639Z 21016KT 08/M04 A2991 RMK A01 T00841038  RH  042%=      5-min Rain = 0
KAM3 180640Z 20016KT 09/M04 A2991 RMK A01 T00851037  RH  042%=      5-min Rain = 0
KAM3 180641Z 21016KT 09/M04 A2991 RMK A01 T00861036  RH  042%=      5-min Rain = 0
KAM3 180642Z 21017KT 09/M04 A2991 RMK A01 T00871035  RH  042%=      5-min Rain = 0
KAM3 180643Z 20017KT 09/M03 A2991 RMK A01 T00901034  RH  042%=      5-min Rain = 0
KAM3 180644Z 20017KT 09/M03 A2991 RMK A01 T00911034  RH  041%=      5-min Rain = 0
KAM3 180645Z 21018G23KT 09/M03 A2991 RMK A01 T00921033  RH  041%=      5-min Rain = 0
KAM3 180646Z 21017KT 09/M03 A2991 RMK A01 T00941031  RH  041%=      5-min Rain = 0
KAM3 180647Z 20018KT 10/M03 A2991 RMK A01 T00951031  RH  041%=      5-min Rain = 0
KAM3 180648Z 20017KT 10/M03 A2991 RMK A01 T00961030  RH  041%=      5-min Rain = 0
KAM3 180649Z 21018KT 10/M03 A2991 RMK A01 T00971030  RH  041%=      5-min Rain = 0
KAM3 180650Z 20018KT 10/M03 A299 RMK A01 T00971030  RH  041%=      5-min Rain = 0
KAM3 180651Z 20017KT 10/M03 A299 RMK A01 T00981030  RH  041%=      5-min Rain = 0
KAM3 180652Z 20018KT 10/M03 A299 RMK A01 T00971030  RH  041%=      5-min Rain = 0
KAM3 180653Z 20018KT 10/M03 A299 RMK A01 T00971030  RH  041%=      5-min Rain = 0
KAM3 180654Z 20019KT 10/M03 A299 RMK A01 T00971030  RH  041%=      5-min Rain = 0
KAM3 180655Z 20018KT 10/M03 A299 RMK A01 T00971029  RH  041%=      5-min Rain = 0
KAM3 180656Z 20018KT 10/M03 A299 RMK A01 T00981029  RH  041%=      5-min Rain = 0
KAM3 180657Z 21017KT 10/M03 A299 RMK A01 T00971029  RH  041%=      5-min Rain = 0
KAM3 180658Z 21019KT 10/M03 A299 RMK A01 T00971028  RH  041%=      5-min Rain = 0
KAM3 180659Z 20020KT 10/M03 A2989 RMK A01 T00971029  RH  041%=      5-min Rain = 0
KAM3 180700Z 20019KT 10/M03 A2989 RMK A01 T00981029  RH  041%=      5-min Rain = 0
KAM3 180701Z 20020KT 10/M03 A2989 RMK A01 T00981029  RH  041%=      5-min Rain = 0
KAM3 180702Z 20019KT 10/M03 A2989 RMK A01 T00991029  RH  041%=      5-min Rain = 0
KAM3 180703Z 20019G24KT 10/M03 A2989 RMK A01 T00991029  RH  041%=      5-min Rain = 0
KAM3 180704Z 20017G22KT 10/M03 A2989 RMK A01 T00981029  RH  041%=      5-min Rain = 0
KAM3 180705Z 21018KT 10/M03 A2989 RMK A01 T00971030  RH  041%=      5-min Rain = 0
KAM3 180706Z 20018KT 10/M03 A2989 RMK A01 T00961029  RH  041%=      5-min Rain = 0
KAM3 180707Z 20018KT 10/M03 A2989 RMK A01 T00951030  RH  041%=      5-min Rain = 0
KAM3 180708Z 20019KT 09/M03 A2988 RMK A01 T00941030  RH  042%=      5-min Rain = 0
KAM3 180709Z 20019G24KT 09/M03 A2988 RMK A01 T00931030  RH  042%=      5-min Rain = 0
KAM3 180710Z 20018KT 09/M03 A2988 RMK A01 T00941030  RH  042%=      5-min Rain = 0
KAM3 180711Z 20019KT 09/M03 A2987 RMK A01 T00941030  RH  042%=      5-min Rain = 0
KAM3 180712Z 20019G24KT 09/M03 A2987 RMK A01 T00931030  RH  042%=      5-min Rain = 0
KAM3 180713Z 20017KT 09/M03 A2987 RMK A01 T00931030  RH  042%=      5-min Rain = 0
KAM3 180714Z 20017KT 09/M03 A2987 RMK A01 T00931030  RH  042%=      5-min Rain = 0
KAM3 180715Z 20016KT 09/M03 A2987 RMK A01 T00921031  RH  042%=      5-min Rain = 0
KAM3 180716Z 20017KT 09/M03 A2987 RMK A01 T00911031  RH  042%=      5-min Rain = 0
KAM3 180717Z 21017KT 09/M03 A2987 RMK A01 T00911030  RH  042%=      5-min Rain = 0
KAM3 180718Z 21017KT 09/M03 A2987 RMK A01 T00901031  RH  042%=      5-min Rain = 0
KAM3 180719Z 20019KT 09/M03 A2987 RMK A01 T00901031  RH  042%=      5-min Rain = 0
KAM3 180720Z 20018KT 09/M03 A2987 RMK A01 T00901031  RH  042%=      5-min Rain = 0
KAM3 180721Z 20015KT 09/M03 A2987 RMK A01 T00891031  RH  042%=      5-min Rain = 0
KAM3 180722Z 21014G19KT 09/M03 A2987 RMK A01 T00881031  RH  043%=      5-min Rain = 0
KAM3 180723Z 21017KT 09/M03 A2987 RMK A01 T00871032  RH  043%=      5-min Rain = 0
KAM3 180724Z 21017KT 09/M03 A2987 RMK A01 T00871031  RH  043%=      5-min Rain = 0
KAM3 180725Z 21016G21KT 09/M03 A2987 RMK A01 T00871031  RH  043%=      5-min Rain = 0
KAM3 180726Z 21015KT 09/M03 A2987 RMK A01 T00861031  RH  043%=      5-min Rain = 0
KAM3 180727Z 22016KT 09/M03 A2987 RMK A01 T00861031  RH  044%=      5-min Rain = 0
KAM3 180728Z 22017KT 09/M03 A2987 RMK A01 T00851031  RH  044%=      5-min Rain = 0
KAM3 180729Z 22018KT 09/M03 A2987 RMK A01 T00851032  RH  044%=      5-min Rain = 0
KAM3 180730Z 22016KT 09/M03 A2987 RMK A01 T00851032  RH  044%=      5-min Rain = 0
KAM3 180731Z 22015KT 09/M03 A2987 RMK A01 T00851032  RH  044%=      5-min Rain = 0
KAM3 180732Z 21018KT 08/M03 A2987 RMK A01 T00841032  RH  044%=      5-min Rain = 0
KAM3 180733Z 21016KT 08/M03 A2987 RMK A01 T00841032  RH  044%=      5-min Rain = 0
KAM3 180734Z 21016KT 08/M03 A2987 RMK A01 T00841032  RH  044%=      5-min Rain = 0
KAM3 180735Z 21016KT 08/M03 A2987 RMK A01 T00831033  RH  044%=      5-min Rain = 0
KAM3 180736Z 21017KT 08/M03 A2986 RMK A01 T00831032  RH  044%=      5-min Rain = 0
KAM3 180737Z 21016KT 08/M03 A2986 RMK A01 T00831033  RH  044%=      5-min Rain = 0
KAM3 180738Z 21016KT 08/M03 A2986 RMK A01 T00831033  RH  044%=      5-min Rain = 0
KAM3 180739Z 21019KT 08/M03 A2986 RMK A01 T00831033  RH  044%=      5-min Rain = 0
KAM3 180740Z 21017KT 08/M03 A2986 RMK A01 T00831033  RH  044%=      5-min Rain = 0
KAM3 180741Z 21018G23KT 08/M03 A2986 RMK A01 T00831034  RH  044%=      5-min Rain = 0
KAM3 180742Z 21019KT 08/M03 A2986 RMK A01 T00831034  RH  044%=      5-min Rain = 0
KAM3 180743Z 21019KT 08/M03 A2985 RMK A01 T00831034  RH  044%=      5-min Rain = 0
KAM3 180744Z 21019KT 08/M03 A2985 RMK A01 T00821034  RH  044%=      5-min Rain = 0
KAM3 180745Z 21019KT 08/M04 A2985 RMK A01 T00821035  RH  044%=      5-min Rain = 0
KAM3 180746Z 21019KT 08/M04 A2985 RMK A01 T00811035  RH  044%=      5-min Rain = 0
KAM3 180747Z 21019KT 08/M04 A2985 RMK A01 T00811035  RH  044%=      5-min Rain = 0
KAM3 180748Z 21020KT 08/M04 A2985 RMK A01 T00811035  RH  044%=      5-min Rain = 0
KAM3 180749Z 21019KT 08/M04 A2985 RMK A01 T00801035  RH  044%=      5-min Rain = 0
KAM3 180750Z 21019KT 08/M04 A2985 RMK A01 T00801035  RH  044%=      5-min Rain = 0
KAM3 180751Z 21018KT 08/M04 A2985 RMK A01 T00791035  RH  044%=      5-min Rain = 0
KAM3 180752Z 21017KT 08/M04 A2985 RMK A01 T00791035  RH  044%=      5-min Rain = 0
KAM3 180753Z 21016G21KT 08/M04 A2985 RMK A01 T00781036  RH  044%=      5-min Rain = 0
KAM3 180754Z 21018KT 08/M04 A2985 RMK A01 T00771036  RH  045%=      5-min Rain = 0
KAM3 180755Z 21016KT 08/M04 A2985 RMK A01 T00771036  RH  045%=      5-min Rain = 0
KAM3 180756Z 21018G23KT 08/M04 A2985 RMK A01 T00761036  RH  045%=      5-min Rain = 0
KAM3 180757Z 21017KT 08/M04 A2984 RMK A01 T00761036  RH  045%=      5-min Rain = 0
KAM3 180758Z 21016KT 08/M04 A2984 RMK A01 T00761036  RH  045%=      5-min Rain = 0
KAM3 180759Z 21018KT 08/M04 A2984 RMK A01 T00761036  RH  045%=      5-min Rain = 0
KAM3 180800Z 21018KT 08/M04 A2984 RMK A01 T00761036  RH  045%=      5-min Rain = 0
KAM3 180801Z 21018KT 08/M04 A2984 RMK A01 T00751036  RH  045%=      5-min Rain = 0
KAM3 180802Z 21018KT 08/M04 A2984 RMK A01 T00751036  RH  045%=      5-min Rain = 0
KAM3 180803Z 21017KT 08/M04 A2984 RMK A01 T00751036  RH  045%=      5-min Rain = 0
KAM3 180804Z 21019KT 08/M04 A2984 RMK A01 T00751036  RH  045%=      5-min Rain = 0
KAM3 180805Z 21019KT 08/M04 A2984 RMK A01 T00751036  RH  045%=      5-min Rain = 0
KAM3 180806Z 21018KT 08/M04 A2984 RMK A01 T00751036  RH  045%=      5-min Rain = 0
KAM3 180807Z 21018KT 08/M04 A2984 RMK A01 T00751036  RH  045%=      5-min Rain = 0
KAM3 180808Z 21018KT 08/M04 A2984 RMK A01 T00751036  RH  045%=      5-min Rain = 0
KAM3 180809Z 21018KT 07/M04 A2984 RMK A01 T00741036  RH  045%=      5-min Rain = 0
KAM3 180810Z 21018G23KT 07/M04 A2984 RMK A01 T00741036  RH  045%=      5-min Rain = 0
KAM3 180811Z 21018G23KT 07/M04 A2984 RMK A01 T00741036  RH  045%=      5-min Rain = 0
KAM3 180812Z 21018KT 07/M04 A2984 RMK A01 T00741036  RH  046%=      5-min Rain = 0
KAM3 180813Z 20018KT 07/M04 A2984 RMK A01 T00741036  RH  046%=      5-min Rain = 0
KAM3 180814Z 21017KT 07/M04 A2984 RMK A01 T00731037  RH  046%=      5-min Rain = 0
KAM3 180815Z 20017KT 07/M04 A2984 RMK A01 T00731036  RH  046%=      5-min Rain = 0
KAM3 180816Z 21017KT 07/M04 A2984 RMK A01 T00731037  RH  046%=      5-min Rain = 0
KAM3 180817Z 20015KT 07/M04 A2984 RMK A01 T00731037  RH  046%=      5-min Rain = 0
KAM3 180818Z 21015KT 07/M04 A2984 RMK A01 T00721037  RH  046%=      5-min Rain = 0
KAM3 180819Z 20016KT 07/M04 A2984 RMK A01 T00721037  RH  046%=      5-min Rain = 0
KAM3 180820Z 20017KT 07/M04 A2984 RMK A01 T00711036  RH  046%=      5-min Rain = 0
KAM3 180821Z 20016KT 07/M04 A2983 RMK A01 T00721036  RH  046%=      5-min Rain = 0
KAM3 180822Z 21016KT 07/M04 A2983 RMK A01 T00731036  RH  046%=      5-min Rain = 0
KAM3 180823Z 21016KT 07/M04 A2983 RMK A01 T00741036  RH  046%=      5-min Rain = 0
KAM3 180824Z 21017KT 07/M04 A2983 RMK A01 T00731036  RH  046%=      5-min Rain = 0
KAM3 180825Z 21016KT 07/M04 A2983 RMK A01 T00731036  RH  046%=      5-min Rain = 0
KAM3 180826Z 21018KT 07/M04 A2983 RMK A01 T00741037  RH  045%=      5-min Rain = 0
KAM3 180827Z 20017KT 08/M04 A2983 RMK A01 T00751036  RH  045%=      5-min Rain = 0
KAM3 180828Z 21017KT 08/M04 A2983 RMK A01 T00751037  RH  045%=      5-min Rain = 0
KAM3 180829Z 21017KT 08/M04 A2983 RMK A01 T00751037  RH  045%=      5-min Rain = 0
KAM3 180830Z 21017KT 08/M04 A2983 RMK A01 T00761036  RH  045%=      5-min Rain = 0
KAM3 180831Z 20018KT 08/M04 A2983 RMK A01 T00761036  RH  045%=      5-min Rain = 0
KAM3 180832Z 20017KT 08/M04 A2983 RMK A01 T00761037  RH  045%=      5-min Rain = 0
KAM3 180833Z 20017KT 08/M04 A2983 RMK A01 T00771037  RH  044%=      5-min Rain = 0
KAM3 180834Z 20016KT 08/M04 A2982 RMK A01 T00771037  RH  044%=      5-min Rain = 0
KAM3 180835Z 21018KT 08/M04 A2982 RMK A01 T00781037  RH  044%=      5-min Rain = 0
KAM3 180836Z 21017G24KT 08/M04 A2982 RMK A01 T00791037  RH  044%=      5-min Rain = 0
KAM3 180837Z 21018KT 08/M04 A2982 RMK A01 T00801037  RH  044%=      5-min Rain = 0
KAM3 180838Z 21021KT 08/M04 A2982 RMK A01 T00811037  RH  043%=      5-min Rain = 0
KAM3 180839Z 21020KT 08/M04 A2982 RMK A01 T00821037  RH  043%=      5-min Rain = 0
KAM3 180840Z 21018KT 08/M04 A2982 RMK A01 T00821037  RH  043%=      5-min Rain = 0
KAM3 180841Z 20018KT 08/M04 A2982 RMK A01 T00831036  RH  043%=      5-min Rain = 0
KAM3 180842Z 21019KT 08/M04 A2982 RMK A01 T00821037  RH  043%=      5-min Rain = 0
KAM3 180843Z 20019KT 08/M04 A2982 RMK A01 T00821037  RH  043%=      5-min Rain = 0
KAM3 180844Z 21018KT 08/M04 A2982 RMK A01 T00831037  RH  042%=      5-min Rain = 0
KAM3 180845Z 20018KT 08/M04 A2982 RMK A01 T00841037  RH  042%=      5-min Rain = 0
KAM3 180846Z 21017KT 08/M04 A2982 RMK A01 T00841037  RH  042%=      5-min Rain = 0
KAM3 180847Z 21018KT 09/M04 A2982 RMK A01 T00861037  RH  042%=      5-min Rain = 0
KAM3 180848Z 20019KT 09/M04 A2982 RMK A01 T00871037  RH  041%=      5-min Rain = 0
KAM3 180849Z 20020KT 09/M04 A2982 RMK A01 T00891037  RH  041%=      5-min Rain = 0
KAM3 180850Z 21018KT 09/M04 A2982 RMK A01 T00901037  RH  041%=      5-min Rain = 0
KAM3 180851Z 21020KT 09/M04 A2982 RMK A01 T00911036  RH  041%=      5-min Rain = 0
KAM3 180852Z 21019KT 09/M04 A2982 RMK A01 T00921036  RH  040%=      5-min Rain = 0
KAM3 180853Z 21020KT 09/M04 A2982 RMK A01 T00921037  RH  040%=      5-min Rain = 0
KAM3 180854Z 21019KT 09/M04 A2982 RMK A01 T00931036  RH  040%=      5-min Rain = 0
KAM3 180855Z 21020KT 09/M04 A2982 RMK A01 T00941036  RH  040%=      5-min Rain = 0
KAM3 180856Z 21020KT 09/M04 A2982 RMK A01 T00941036  RH  040%=      5-min Rain = 0
KAM3 180857Z 21021KT 10/M04 A2982 RMK A01 T00951035  RH  040%=      5-min Rain = 0
KAM3 180858Z 21019KT 10/M04 A2982 RMK A01 T00971035  RH  039%=      5-min Rain = 0
KAM3 180859Z 21020KT 10/M04 A2981 RMK A01 T00971035  RH  039%=      5-min Rain = 0
KAM3 180900Z 22021KT 10/M04 A2981 RMK A01 T00981035  RH  039%=      5-min Rain = 0
KAM3 180901Z 22022KT 10/M04 A2981 RMK A01 T00991035  RH  039%=      5-min Rain = 0
KAM3 180902Z 22021KT 10/M04 A2981 RMK A01 T01001035  RH  039%=      5-min Rain = 0
KAM3 180903Z 22021G28KT 10/M04 A2982 RMK A01 T01001035  RH  039%=      5-min Rain = 0
KAM3 180904Z 21023KT 10/M04 A2981 RMK A01 T00991035  RH  039%=      5-min Rain = 0
KAM3 180905Z 21023KT 10/M04 A2981 RMK A01 T01001036  RH  038%=      5-min Rain = 0
KAM3 180906Z 21022KT 10/M04 A2981 RMK A01 T01001036  RH  038%=      5-min Rain = 0
KAM3 180907Z 22023KT 10/M04 A2981 RMK A01 T00991036  RH  039%=      5-min Rain = 0
KAM3 180908Z 22020G26KT 10/M04 A2981 RMK A01 T00981036  RH  039%=      5-min Rain = 0
KAM3 180909Z 22019KT 10/M04 A2981 RMK A01 T00971036  RH  039%=      5-min Rain = 0
KAM3 180910Z 21020G25KT 10/M04 A2981 RMK A01 T00961036  RH  039%=      5-min Rain = 0
KAM3 180911Z 21020KT 10/M04 A2981 RMK A01 T00951035  RH  040%=      5-min Rain = 0
KAM3 180912Z 22020KT 10/M04 A2981 RMK A01 T00951036  RH  040%=      5-min Rain = 0
KAM3 180913Z 22021KT 10/M04 A2981 RMK A01 T00951035  RH  040%=      5-min Rain = 0
KAM3 180914Z 22018G23KT 10/M04 A2981 RMK A01 T00961035  RH  040%=      5-min Rain = 0
KAM3 180915Z 22017KT 10/M04 A2981 RMK A01 T00961035  RH  040%=      5-min Rain = 0
KAM3 180916Z 22018KT 10/M04 A2981 RMK A01 T00961035  RH  040%=      5-min Rain = 0
KAM3 180917Z 22019KT 10/M03 A2981 RMK A01 T00971034  RH  040%=      5-min Rain = 0
KAM3 180918Z 22020KT 10/M03 A2981 RMK A01 T00981033  RH  040%=      5-min Rain = 0
KAM3 180919Z 22020G26KT 10/M03 A2981 RMK A01 T00981033  RH  039%=      5-min Rain = 0
KAM3 180920Z 22019KT 10/M03 A2981 RMK A01 T00991033  RH  039%=      5-min Rain = 0
KAM3 180921Z 22017G23KT 10/M03 A2981 RMK A01 T00991033  RH  039%=      5-min Rain = 0
KAM3 180922Z 22022G27KT 10/M03 A2981 RMK A01 T00991033  RH  039%=      5-min Rain = 0
KAM3 180923Z 22021KT 10/M03 A2981 RMK A01 T00991032  RH  040%=      5-min Rain = 0
KAM3 180924Z 22021KT 10/M03 A2982 RMK A01 T00991032  RH  040%=      5-min Rain = 0
KAM3 180925Z 22021KT 10/M03 A2981 RMK A01 T00991032  RH  040%=      5-min Rain = 0
KAM3 180926Z 22019KT 10/M03 A2982 RMK A01 T00991032  RH  040%=      5-min Rain = 0
KAM3 180927Z 22020G25KT 10/M03 A2982 RMK A01 T00991032  RH  040%=      5-min Rain = 0
KAM3 180928Z 22021G27KT 10/M03 A2982 RMK A01 T00981032  RH  040%=      5-min Rain = 0
KAM3 180929Z 22019KT 10/M03 A2981 RMK A01 T00971033  RH  040%=      5-min Rain = 0
KAM3 180930Z 22020KT 10/M03 A2981 RMK A01 T00971033  RH  040%=      5-min Rain = 0
KAM3 180931Z 22021G28KT 10/M03 A2981 RMK A01 T00971032  RH  040%=      5-min Rain = 0
KAM3 180932Z 22021KT 10/M03 A2981 RMK A01 T00961033  RH  040%=      5-min Rain = 0
KAM3 180933Z 22020KT 10/M03 A2981 RMK A01 T00951033  RH  040%=      5-min Rain = 0
KAM3 180934Z 22021KT 09/M03 A2981 RMK A01 T00941033  RH  041%=      5-min Rain = 0
KAM3 180935Z 23019G24KT 09/M03 A2981 RMK A01 T00931033  RH  041%=      5-min Rain = 0
KAM3 180936Z 22021G26KT 09/M03 A2981 RMK A01 T00921034  RH  041%=      5-min Rain = 0
KAM3 180937Z 23021G27KT 09/M03 A2981 RMK A01 T00921034  RH  041%=      5-min Rain = 0
KAM3 180938Z 23019KT 09/M03 A2981 RMK A01 T00911034  RH  041%=      5-min Rain = 0
KAM3 180939Z 23019KT 09/M04 A2981 RMK A01 T00901035  RH  041%=      5-min Rain = 0
KAM3 180940Z 22018KT 09/M04 A2981 RMK A01 T00881035  RH  042%=      5-min Rain = 0
KAM3 180941Z 23018KT 09/M04 A2981 RMK A01 T00871035  RH  042%=      5-min Rain = 0
KAM3 180942Z 23019KT 09/M03 A2981 RMK A01 T00861034  RH  042%=      5-min Rain = 0
KAM3 180943Z 22016KT 09/M04 A2981 RMK A01 T00861035  RH  043%=      5-min Rain = 0
KAM3 180944Z 22018KT 08/M04 A2981 RMK A01 T00841035  RH  043%=      5-min Rain = 0
KAM3 180945Z 22018KT 08/M04 A2981 RMK A01 T00831035  RH  043%=      5-min Rain = 0
KAM3 180946Z 23019KT 08/M03 A2981 RMK A01 T00831034  RH  043%=      5-min Rain = 0
KAM3 180947Z 22019KT 08/M03 A2981 RMK A01 T00841034  RH  043%=      5-min Rain = 0
KAM3 180948Z 22018G26KT 08/M03 A2981 RMK A01 T00831034  RH  043%=      5-min Rain = 0
KAM3 180949Z 22020KT 08/M03 A2981 RMK A01 T00821034  RH  044%=      5-min Rain = 0
KAM3 180950Z 22022KT 08/M03 A298 RMK A01 T00831034  RH  044%=      5-min Rain = 0
KAM3 180951Z 22023KT 08/M03 A298 RMK A01 T00831034  RH  044%=      5-min Rain = 0
KAM3 180952Z 22019KT 08/M03 A2981 RMK A01 T00831033  RH  044%=      5-min Rain = 0
KAM3 180953Z 22017KT 08/M03 A298 RMK A01 T00821034  RH  044%=      5-min Rain = 0
KAM3 180954Z 22019KT 08/M03 A298 RMK A01 T00811034  RH  044%=      5-min Rain = 0
KAM3 180955Z 22018KT 08/M03 A298 RMK A01 T00811033  RH  044%=      5-min Rain = 0
KAM3 180956Z 22019KT 08/M03 A298 RMK A01 T00801034  RH  044%=      5-min Rain = 0
KAM3 180957Z 22021KT 08/M03 A298 RMK A01 T00801034  RH  044%=      5-min Rain = 0
KAM3 180958Z 22019G24KT 08/M03 A298 RMK A01 T00801034  RH  044%=      5-min Rain = 0
KAM3 180959Z 22018G23KT 08/M03 A298 RMK A01 T00801034  RH  044%=      5-min Rain = 0
KAM3 181000Z 22018KT 08/M03 A298 RMK A01 T00791034  RH  045%=      5-min Rain = 0
KAM3 181001Z 22018KT 08/M03 A2979 RMK A01 T00781034  RH  045%=      5-min Rain = 0
KAM3 181002Z 22017KT 08/M03 A2979 RMK A01 T00771034  RH  045%=      5-min Rain = 0
KAM3 181003Z 22018KT 08/M03 A2979 RMK A01 T00761034  RH  045%=      5-min Rain = 0
KAM3 181004Z 22019KT 08/M03 A2979 RMK A01 T00761034  RH  046%=      5-min Rain = 0
KAM3 181005Z 22018KT 08/M03 A2979 RMK A01 T00761034  RH  046%=      5-min Rain = 0
KAM3 181006Z 22018G23KT 08/M03 A2979 RMK A01 T00761034  RH  046%=      5-min Rain = 0
KAM3 181007Z 22018KT 08/M03 A2979 RMK A01 T00751033  RH  046%=      5-min Rain = 0
KAM3 181008Z 22019KT 08/M03 A2979 RMK A01 T00751034  RH  046%=      5-min Rain = 0
KAM3 181009Z 22018KT 08/M03 A2979 RMK A01 T00751034  RH  046%=      5-min Rain = 0
KAM3 181010Z 22017G22KT 07/M03 A2979 RMK A01 T00741034  RH  046%=      5-min Rain = 0
KAM3 181011Z 22018KT 08/M03 A2978 RMK A01 T00751033  RH  046%=      5-min Rain = 0
KAM3 181012Z 22018KT 08/M03 A2979 RMK A01 T00761033  RH  046%=      5-min Rain = 0
KAM3 181013Z 22018KT 08/M03 A2978 RMK A01 T00761033  RH  046%=      5-min Rain = 0
KAM3 181014Z 22017KT 08/M03 A2978 RMK A01 T00771032  RH  046%=      5-min Rain = 0
KAM3 181015Z 22017KT 08/M03 A2978 RMK A01 T00761033  RH  046%=      5-min Rain = 0
KAM3 181016Z 22018KT 08/M03 A2978 RMK A01 T00771032  RH  046%=      5-min Rain = 0
KAM3 181017Z 22018KT 08/M03 A2978 RMK A01 T00771033  RH  046%=      5-min Rain = 0
KAM3 181018Z 22017KT 08/M03 A2978 RMK A01 T00761033  RH  046%=      5-min Rain = 0
KAM3 181019Z 22019KT 08/M03 A2978 RMK A01 T00761033  RH  046%=      5-min Rain = 0
KAM3 181020Z 22017KT 08/M03 A2978 RMK A01 T00761032  RH  046%=      5-min Rain = 0
KAM3 181021Z 22017KT 08/M03 A2978 RMK A01 T00761032  RH  046%=      5-min Rain = 0
KAM3 181022Z 22018KT 08/M03 A2978 RMK A01 T00771032  RH  046%=      5-min Rain = 0
KAM3 181023Z 22018KT 08/M03 A2978 RMK A01 T00771032  RH  046%=      5-min Rain = 0
KAM3 181024Z 22018KT 08/M03 A2978 RMK A01 T00771032  RH  046%=      5-min Rain = 0
KAM3 181025Z 22018KT 08/M03 A2978 RMK A01 T00771031  RH  046%=      5-min Rain = 0
KAM3 181026Z 22019KT 08/M03 A2978 RMK A01 T00771032  RH  046%=      5-min Rain = 0
KAM3 181027Z 22017KT 08/M03 A2978 RMK A01 T00781032  RH  046%=      5-min Rain = 0
KAM3 181028Z 22017KT 08/M03 A2978 RMK A01 T00771032  RH  046%=      5-min Rain = 0
KAM3 181029Z 22017KT 08/M03 A2977 RMK A01 T00761032  RH  046%=      5-min Rain = 0
KAM3 181030Z 22018KT 08/M03 A2978 RMK A01 T00751032  RH  046%=      5-min Rain = 0
KAM3 181031Z 22016KT 08/M03 A2978 RMK A01 T00751032  RH  047%=      5-min Rain = 0
KAM3 181032Z 22017KT 07/M03 A2977 RMK A01 T00741032  RH  047%=      5-min Rain = 0
KAM3 181033Z 22018KT 07/M03 A2977 RMK A01 T00741032  RH  047%=      5-min Rain = 0
KAM3 181034Z 22017KT 08/M03 A2977 RMK A01 T00751032  RH  047%=      5-min Rain = 0
KAM3 181035Z 22018KT 08/M03 A2977 RMK A01 T00751033  RH  047%=      5-min Rain = 0
KAM3 181036Z 22017KT 08/M03 A2977 RMK A01 T00751033  RH  046%=      5-min Rain = 0
KAM3 181037Z 22019KT 07/M03 A2977 RMK A01 T00741033  RH  046%=      5-min Rain = 0
KAM3 181038Z 22019KT 08/M03 A2977 RMK A01 T00751033  RH  046%=      5-min Rain = 0
KAM3 181039Z 22017KT 08/M03 A2977 RMK A01 T00751033  RH  046%=      5-min Rain = 0
KAM3 181040Z 22018KT 08/M03 A2977 RMK A01 T00751033  RH  046%=      5-min Rain = 0
KAM3 181041Z 21018KT 07/M03 A2977 RMK A01 T00741033  RH  046%=      5-min Rain = 0
KAM3 181042Z 21017KT 07/M03 A2977 RMK A01 T00741033  RH  047%=      5-min Rain = 0
KAM3 181043Z 22017KT 07/M03 A2977 RMK A01 T00741033  RH  047%=      5-min Rain = 0
KAM3 181044Z 22018KT 07/M03 A2977 RMK A01 T00741033  RH  047%=      5-min Rain = 0
KAM3 181045Z 22020KT 07/M03 A2976 RMK A01 T00741033  RH  047%=      5-min Rain = 0
KAM3 181046Z 22020KT 07/M03 A2976 RMK A01 T00741033  RH  047%=      5-min Rain = 0
KAM3 181047Z 22019KT 07/M03 A2976 RMK A01 T00741032  RH  047%=      5-min Rain = 0
KAM3 181048Z 22020KT 07/M03 A2976 RMK A01 T00741033  RH  047%=      5-min Rain = 0
KAM3 181049Z 22021KT 08/M03 A2976 RMK A01 T00751032  RH  046%=      5-min Rain = 0
KAM3 181050Z 22019KT 08/M03 A2976 RMK A01 T00771032  RH  046%=      5-min Rain = 0
KAM3 181051Z 22019KT 08/M03 A2976 RMK A01 T00771032  RH  046%=      5-min Rain = 0
KAM3 181052Z 22020KT 08/M03 A2976 RMK A01 T00771032  RH  046%=      5-min Rain = 0
KAM3 181053Z 22020KT 08/M03 A2976 RMK A01 T00781032  RH  046%=      5-min Rain = 0
KAM3 181054Z 22020KT 08/M03 A2976 RMK A01 T00791032  RH  046%=      5-min Rain = 0
KAM3 181055Z 22019KT 08/M03 A2976 RMK A01 T00791032  RH  045%=      5-min Rain = 0
KAM3 181056Z 22020KT 08/M03 A2976 RMK A01 T00801032  RH  045%=      5-min Rain = 0
KAM3 181057Z 22021KT 08/M03 A2976 RMK A01 T00801032  RH  045%=      5-min Rain = 0
KAM3 181058Z 22017KT 08/M03 A2976 RMK A01 T00811032  RH  045%=      5-min Rain = 0
KAM3 181059Z 22018KT 08/M03 A2976 RMK A01 T00811032  RH  045%=      5-min Rain = 0
KAM3 181100Z 22019KT 08/M03 A2976 RMK A01 T00811031  RH  045%=      5-min Rain = 0
KAM3 181101Z 22020KT 08/M03 A2976 RMK A01 T00811031  RH  045%=      5-min Rain = 0
KAM3 181102Z 22019G24KT 08/M03 A2976 RMK A01 T00811031  RH  045%=      5-min Rain = 0
KAM3 181103Z 22020KT 08/M03 A2975 RMK A01 T00811031  RH  045%=      5-min Rain = 0
KAM3 181104Z 22019KT 08/M03 A2975 RMK A01 T00821031  RH  045%=      5-min Rain = 0
KAM3 181105Z 23019KT 08/M03 A2975 RMK A01 T00821031  RH  045%=      5-min Rain = 0
KAM3 181106Z 23017G22KT 08/M03 A2976 RMK A01 T00821031  RH  045%=      5-min Rain = 0
KAM3 181107Z 22018KT 08/M03 A2976 RMK A01 T00811031  RH  045%=      5-min Rain = 0
KAM3 181108Z 22016KT 08/M03 A2976 RMK A01 T00811031  RH  045%=      5-min Rain = 0
KAM3 181109Z 22019KT 08/M03 A2975 RMK A01 T00811031  RH  045%=      5-min Rain = 0
KAM3 181110Z 22019KT 08/M03 A2975 RMK A01 T00811031  RH  045%=      5-min Rain = 0
KAM3 181111Z 22018KT 08/M03 A2975 RMK A01 T00801031  RH  045%=      5-min Rain = 0
KAM3 181112Z 22017KT 08/M03 A2975 RMK A01 T00811030  RH  045%=      5-min Rain = 0
KAM3 181113Z 22018KT 08/M03 A2975 RMK A01 T00811030  RH  045%=      5-min Rain = 0
KAM3 181114Z 22020KT 08/M03 A2975 RMK A01 T00811030  RH  045%=      5-min Rain = 0
KAM3 181115Z 22021KT 08/M03 A2974 RMK A01 T00831029  RH  045%=      5-min Rain = 0
KAM3 181116Z 22020KT 09/M03 A2974 RMK A01 T00851029  RH  045%=      5-min Rain = 0
KAM3 181117Z 22019KT 09/M03 A2975 RMK A01 T00851029  RH  044%=      5-min Rain = 0
KAM3 181118Z 22017KT 08/M03 A2975 RMK A01 T00831030  RH  045%=      5-min Rain = 0
KAM3 181119Z 22019KT 08/M03 A2974 RMK A01 T00811029  RH  045%=      5-min Rain = 0
KAM3 181120Z 23017KT 08/M03 A2974 RMK A01 T00811029  RH  046%=      5-min Rain = 0
KAM3 181121Z 23017KT 08/M03 A2975 RMK A01 T00811029  RH  046%=      5-min Rain = 0
KAM3 181122Z 22017KT 08/M03 A2974 RMK A01 T00811029  RH  046%=      5-min Rain = 0
KAM3 181123Z 22018KT 08/M03 A2974 RMK A01 T00811028  RH  046%=      5-min Rain = 0
KAM3 181124Z 23018KT 08/M03 A2974 RMK A01 T00811028  RH  046%=      5-min Rain = 0
KAM3 181125Z 23017G22KT 08/M03 A2974 RMK A01 T00811028  RH  046%=      5-min Rain = 0
KAM3 181126Z 22017KT 08/M03 A2974 RMK A01 T00811028  RH  046%=      5-min Rain = 0
KAM3 181127Z 22016KT 08/M03 A2974 RMK A01 T00821028  RH  046%=      5-min Rain = 0
KAM3 181128Z 23016KT 08/M03 A2974 RMK A01 T00821027  RH  046%=      5-min Rain = 0
KAM3 181129Z 22016KT 08/M03 A2974 RMK A01 T00821027  RH  046%=      5-min Rain = 0
KAM3 181130Z 22016KT 08/M03 A2974 RMK A01 T00821028  RH  046%=      5-min Rain = 0
KAM3 181131Z 22016KT 08/M03 A2974 RMK A01 T00831028  RH  046%=      5-min Rain = 0
KAM3 181132Z 22014KT 08/M03 A2974 RMK A01 T00831027  RH  046%=      5-min Rain = 0
KAM3 181133Z 22016KT 08/M03 A2973 RMK A01 T00821027  RH  046%=      5-min Rain = 0
KAM3 181134Z 23018KT 08/M03 A2973 RMK A01 T00821027  RH  046%=      5-min Rain = 0
KAM3 181135Z 22016KT 08/M03 A2973 RMK A01 T00831027  RH  046%=      5-min Rain = 0
KAM3 181136Z 22016KT 08/M03 A2973 RMK A01 T00841027  RH  046%=      5-min Rain = 0
KAM3 181137Z 22015KT 08/M03 A2973 RMK A01 T00841027  RH  046%=      5-min Rain = 0
KAM3 181138Z 23014KT 08/M03 A2973 RMK A01 T00841026  RH  046%=      5-min Rain = 0
KAM3 181139Z 23015KT 08/M03 A2973 RMK A01 T00831027  RH  046%=      5-min Rain = 0
KAM3 181140Z 22014KT 08/M03 A2973 RMK A01 T00831027  RH  046%=      5-min Rain = 0
KAM3 181141Z 23014KT 08/M03 A2973 RMK A01 T00831027  RH  046%=      5-min Rain = 0
KAM3 181142Z 22014KT 08/M03 A2973 RMK A01 T00831027  RH  046%=      5-min Rain = 0
KAM3 181143Z 22017KT 08/M03 A2973 RMK A01 T00821027  RH  046%=      5-min Rain = 0
KAM3 181144Z 22014KT 08/M03 A2973 RMK A01 T00831026  RH  046%=      5-min Rain = 0
KAM3 181145Z 22016G21KT 08/M03 A2973 RMK A01 T00841026  RH  046%=      5-min Rain = 0
KAM3 181146Z 22015KT 08/M03 A2973 RMK A01 T00841026  RH  046%=      5-min Rain = 0
KAM3 181147Z 22014KT 08/M03 A2973 RMK A01 T00841026  RH  046%=      5-min Rain = 0
KAM3 181148Z 22016KT 08/M03 A2973 RMK A01 T00831026  RH  046%=      5-min Rain = 0
KAM3 181149Z 22014KT 08/M03 A2973 RMK A01 T00831026  RH  046%=      5-min Rain = 0
KAM3 181150Z 22016KT 08/M03 A2973 RMK A01 T00831026  RH  046%=      5-min Rain = 0
KAM3 181151Z 22014KT 08/M03 A2973 RMK A01 T00831025  RH  046%=      5-min Rain = 0
KAM3 181152Z 22016KT 08/M03 A2973 RMK A01 T00831025  RH  046%=      5-min Rain = 0
KAM3 181153Z 22015KT 08/M03 A2973 RMK A01 T00831025  RH  046%=      5-min Rain = 0
KAM3 181154Z 22015KT 08/M02 A2972 RMK A01 T00841024  RH  046%=      5-min Rain = 0
KAM3 181155Z 22017KT 09/M02 A2972 RMK A01 T00851024  RH  046%=      5-min Rain = 0
KAM3 181156Z 22017KT 09/M02 A2973 RMK A01 T00861024  RH  046%=      5-min Rain = 0
KAM3 181157Z 22018KT 09/M02 A2973 RMK A01 T00861024  RH  046%=      5-min Rain = 0
KAM3 181158Z 22016KT 09/M02 A2973 RMK A01 T00861023  RH  046%=      5-min Rain = 0
KAM3 181159Z 22016KT 09/M02 A2973 RMK A01 T00861024  RH  046%=      5-min Rain = 0
KAM3 181200Z 23015KT 09/M02 A2973 RMK A01 T00861023  RH  046%=      5-min Rain = 0
KAM3 181201Z 23015KT 09/M02 A2973 RMK A01 T00861023  RH  046%=      5-min Rain = 0
KAM3 181202Z 23015KT 09/M02 A2973 RMK A01 T00861023  RH  046%=      5-min Rain = 0
KAM3 181203Z 23013KT 09/M02 A2973 RMK A01 T00861023  RH  046%=      5-min Rain = 0
KAM3 181204Z 23014KT 09/M02 A2973 RMK A01 T00851023  RH  046%=      5-min Rain = 0
KAM3 181205Z 23013KT 09/M02 A2973 RMK A01 T00851023  RH  047%=      5-min Rain = 0
KAM3 181206Z 22015KT 09/M02 A2973 RMK A01 T00851023  RH  047%=      5-min Rain = 0
KAM3 181207Z 22015KT 09/M02 A2973 RMK A01 T00851023  RH  047%=      5-min Rain = 0
KAM3 181208Z 22013KT 09/M02 A2973 RMK A01 T00861022  RH  046%=      5-min Rain = 0
KAM3 181209Z 22014KT 09/M02 A2973 RMK A01 T00861022  RH  047%=      5-min Rain = 0
KAM3 181210Z 22012KT 09/M02 A2972 RMK A01 T00861022  RH  047%=      5-min Rain = 0
KAM3 181211Z 22013KT 09/M02 A2972 RMK A01 T00861022  RH  047%=      5-min Rain = 0
KAM3 181212Z 22013KT 09/M02 A2972 RMK A01 T00861022  RH  047%=      5-min Rain = 0
KAM3 181213Z 22015KT 09/M02 A2972 RMK A01 T00861022  RH  047%=      5-min Rain = 0
KAM3 181214Z 22015KT 09/M02 A2972 RMK A01 T00871022  RH  047%=      5-min Rain = 0
KAM3 181215Z 22013G19KT 09/M02 A2972 RMK A01 T00871021  RH  046%=      5-min Rain = 0
KAM3 181216Z 22015KT 09/M02 A2972 RMK A01 T00871021  RH  046%=      5-min Rain = 0
KAM3 181217Z 22015KT 09/M02 A2972 RMK A01 T00881021  RH  046%=      5-min Rain = 0
KAM3 181218Z 22015KT 09/M02 A2972 RMK A01 T00881021  RH  046%=      5-min Rain = 0
KAM3 181219Z 21015KT 09/M02 A2972 RMK A01 T00881021  RH  046%=      5-min Rain = 0
KAM3 181220Z 21015KT 09/M02 A2972 RMK A01 T00881021  RH  046%=      5-min Rain = 0
KAM3 181221Z 21015KT 09/M02 A2972 RMK A01 T00871021  RH  046%=      5-min Rain = 0
KAM3 181222Z 21014KT 09/M02 A2972 RMK A01 T00881021  RH  047%=      5-min Rain = 0
KAM3 181223Z 21017KT 09/M02 A2972 RMK A01 T00881021  RH  047%=      5-min Rain = 0
KAM3 181224Z 22015KT 09/M02 A2972 RMK A01 T00881021  RH  046%=      5-min Rain = 0
KAM3 181225Z 22015KT 09/M02 A2972 RMK A01 T00891020  RH  046%=      5-min Rain = 0
KAM3 181226Z 23015KT 09/M02 A2972 RMK A01 T00901021  RH  046%=      5-min Rain = 0
KAM3 181227Z 23013KT 09/M02 A2972 RMK A01 T00901020  RH  046%=      5-min Rain = 0
KAM3 181228Z 23014KT 09/M02 A2972 RMK A01 T00901021  RH  046%=      5-min Rain = 0
KAM3 181229Z 23013KT 09/M02 A2972 RMK A01 T00901021  RH  046%=      5-min Rain = 0
KAM3 181230Z 23013KT 09/M02 A2972 RMK A01 T00901021  RH  046%=      5-min Rain = 0
KAM3 181231Z 23013KT 09/M02 A2972 RMK A01 T00901020  RH  046%=      5-min Rain = 0
KAM3 181232Z 22014KT 09/M02 A2972 RMK A01 T00901020  RH  046%=      5-min Rain = 0
KAM3 181233Z 22015KT 09/M02 A2972 RMK A01 T00901020  RH  046%=      5-min Rain = 0
KAM3 181234Z 21016KT 09/M02 A2972 RMK A01 T00891020  RH  046%=      5-min Rain = 0
KAM3 181235Z 21016KT 09/M02 A2972 RMK A01 T00891020  RH  046%=      5-min Rain = 0
KAM3 181236Z 21015KT 09/M02 A2972 RMK A01 T00891020  RH  046%=      5-min Rain = 0
KAM3 181237Z 22015KT 09/M02 A2972 RMK A01 T00891020  RH  046%=      5-min Rain = 0
KAM3 181238Z 21015KT 09/M02 A2972 RMK A01 T00891020  RH  046%=      5-min Rain = 0
KAM3 181239Z 21015KT 09/M02 A2972 RMK A01 T00881020  RH  047%=      5-min Rain = 0
KAM3 181240Z 21013KT 09/M02 A2972 RMK A01 T00881020  RH  047%=      5-min Rain = 0
KAM3 181241Z 22013KT 09/M02 A2972 RMK A01 T00881020  RH  047%=      5-min Rain = 0
KAM3 181242Z 22013KT 09/M02 A2972 RMK A01 T00881020  RH  047%=      5-min Rain = 0
KAM3 181243Z 22013KT 09/M02 A2972 RMK A01 T00881020  RH  047%=      5-min Rain = 0
KAM3 181244Z 22013KT 09/M02 A2972 RMK A01 T00881019  RH  047%=      5-min Rain = 0
KAM3 181245Z 22013KT 09/M02 A2972 RMK A01 T00881020  RH  047%=      5-min Rain = 0
KAM3 181246Z 21014KT 09/M02 A2972 RMK A01 T00871019  RH  047%=      5-min Rain = 0
KAM3 181247Z 22014KT 09/M02 A2972 RMK A01 T00871019  RH  047%=      5-min Rain = 0
KAM3 181248Z 22013KT 09/M02 A2972 RMK A01 T00871020  RH  047%=      5-min Rain = 0
KAM3 181249Z 22013KT 09/M02 A2972 RMK A01 T00871019  RH  047%=      5-min Rain = 0
KAM3 181250Z 22014KT 09/M02 A2972 RMK A01 T00851020  RH  048%=      5-min Rain = 0
KAM3 181251Z 22015KT 09/M02 A2972 RMK A01 T00851019  RH  048%=      5-min Rain = 0
KAM3 181252Z 23015KT 09/M02 A2972 RMK A01 T00861019  RH  048%=      5-min Rain = 0
KAM3 181253Z 23014KT 09/M02 A2972 RMK A01 T00871018  RH  048%=      5-min Rain = 0
KAM3 181254Z 22015KT 09/M02 A2972 RMK A01 T00881018  RH  047%=      5-min Rain = 0
KAM3 181255Z 23015KT 09/M02 A2972 RMK A01 T00881018  RH  047%=      5-min Rain = 0
KAM3 181256Z 23013KT 09/M02 A2972 RMK A01 T00881018  RH  047%=      5-min Rain = 0
KAM3 181257Z 23014KT 09/M02 A2972 RMK A01 T00881018  RH  047%=      5-min Rain = 0
KAM3 181258Z 23013KT 09/M02 A2972 RMK A01 T00871018  RH  048%=      5-min Rain = 0
KAM3 181259Z 23015KT 09/M02 A2972 RMK A01 T00871018  RH  048%=      5-min Rain = 0
KAM3 181300Z 23015KT 09/M02 A2972 RMK A01 T00871018  RH  048%=      5-min Rain = 0
KAM3 181301Z 22014KT 09/M02 A2972 RMK A01 T00871018  RH  048%=      5-min Rain = 0
KAM3 181302Z 23015KT 09/M02 A2972 RMK A01 T00871018  RH  048%=      5-min Rain = 0
KAM3 181303Z 23016KT 09/M02 A2972 RMK A01 T00881017  RH  048%=      5-min Rain = 0
KAM3 181304Z 23013KT 09/M02 A2972 RMK A01 T00871017  RH  048%=      5-min Rain = 0
KAM3 181305Z 23013KT 09/M02 A2972 RMK A01 T00871017  RH  048%=      5-min Rain = 0
KAM3 181306Z 23013KT 09/M02 A2972 RMK A01 T00871017  RH  048%=      5-min Rain = 0
KAM3 181307Z 23012KT 09/M02 A2972 RMK A01 T00871017  RH  048%=      5-min Rain = 0
KAM3 181308Z 24013KT 09/M02 A2972 RMK A01 T00871017  RH  048%=      5-min Rain = 0
KAM3 181309Z 24011KT 09/M02 A2972 RMK A01 T00871017  RH  048%=      5-min Rain = 0
KAM3 181310Z 24013KT 09/M02 A2973 RMK A01 T00861017  RH  048%=      5-min Rain = 0
KAM3 181311Z 24011KT 09/M02 A2973 RMK A01 T00861016  RH  049%=      5-min Rain = 0
KAM3 181312Z 24012KT 09/M02 A2973 RMK A01 T00861016  RH  049%=      5-min Rain = 0
KAM3 181313Z 24012KT 09/M02 A2973 RMK A01 T00861016  RH  049%=      5-min Rain = 0
KAM3 181314Z 24012KT 09/M02 A2973 RMK A01 T00871015  RH  049%=      5-min Rain = 0
KAM3 181315Z 24012KT 09/M02 A2973 RMK A01 T00871015  RH  049%=      5-min Rain = 0
KAM3 181316Z 24012KT 09/M02 A2973 RMK A01 T00861015  RH  049%=      5-min Rain = 0
KAM3 181317Z 24011KT 09/M01 A2973 RMK A01 T00871014  RH  049%=      5-min Rain = 0
KAM3 181318Z 24011KT 09/M02 A2973 RMK A01 T00861015  RH  049%=      5-min Rain = 0
KAM3 181319Z 24011KT 09/M01 A2973 RMK A01 T00861014  RH  049%=      5-min Rain = 0
KAM3 181320Z 24012KT 09/M01 A2973 RMK A01 T00861014  RH  049%=      5-min Rain = 0
KAM3 181321Z 23011KT 09/M01 A2973 RMK A01 T00871014  RH  049%=      5-min Rain = 0
KAM3 181322Z 23009KT 09/M01 A2973 RMK A01 T00871013  RH  049%=      5-min Rain = 0
KAM3 181323Z 23009KT 09/M01 A2973 RMK A01 T00861014  RH  050%=      5-min Rain = 0
KAM3 181324Z 23010KT 09/M01 A2973 RMK A01 T00851014  RH  050%=      5-min Rain = 0
KAM3 181325Z 23010KT 09/M01 A2973 RMK A01 T00851014  RH  050%=      5-min Rain = 0
KAM3 181326Z 23009KT 09/M01 A2972 RMK A01 T00851013  RH  050%=      5-min Rain = 0
KAM3 181327Z 23009KT 09/M01 A2972 RMK A01 T00851014  RH  050%=      5-min Rain = 0
KAM3 181328Z 24010KT 08/M01 A2972 RMK A01 T00841014  RH  050%=      5-min Rain = 0
KAM3 181329Z 24011KT 08/M01 A2972 RMK A01 T00841013  RH  050%=      5-min Rain = 0
KAM3 181330Z 24009KT 08/M01 A2972 RMK A01 T00841014  RH  050%=      5-min Rain = 0
KAM3 181331Z 24010KT 08/M01 A2972 RMK A01 T00841013  RH  050%=      5-min Rain = 0
KAM3 181332Z 24010KT 08/M01 A2972 RMK A01 T00841013  RH  050%=      5-min Rain = 0
KAM3 181333Z 24010KT 08/M01 A2972 RMK A01 T00841013  RH  050%=      5-min Rain = 0
KAM3 181334Z 24010KT 08/M01 A2972 RMK A01 T00841013  RH  050%=      5-min Rain = 0
KAM3 181335Z 24010KT 08/M01 A2972 RMK A01 T00841013  RH  050%=      5-min Rain = 0
KAM3 181336Z 24011KT 08/M01 A2972 RMK A01 T00841013  RH  051%=      5-min Rain = 0
KAM3 181337Z 23010KT 08/M01 A2972 RMK A01 T00841012  RH  051%=      5-min Rain = 0
KAM3 181338Z 23011KT 08/M01 A2972 RMK A01 T00841012  RH  051%=      5-min Rain = 0
KAM3 181339Z 23011KT 08/M01 A2972 RMK A01 T00841012  RH  051%=      5-min Rain = 0
KAM3 181340Z 23011KT 09/M01 A2972 RMK A01 T00851012  RH  051%=      5-min Rain = 0
KAM3 181341Z 23011KT 09/M01 A2972 RMK A01 T00851011  RH  051%=      5-min Rain = 0
KAM3 181342Z 23011KT 09/M01 A2972 RMK A01 T00851011  RH  051%=      5-min Rain = 0
KAM3 181343Z 23011KT 09/M01 A2972 RMK A01 T00861011  RH  051%=      5-min Rain = 0
KAM3 181344Z 23011KT 09/M01 A2972 RMK A01 T00861011  RH  051%=      5-min Rain = 0
KAM3 181345Z 23011KT 09/M01 A2972 RMK A01 T00861011  RH  051%=      5-min Rain = 0
KAM3 181346Z 23011KT 09/M01 A2972 RMK A01 T00861011  RH  051%=      5-min Rain = 0
KAM3 181347Z 23012KT 09/M01 A2972 RMK A01 T00861011  RH  051%=      5-min Rain = 0
KAM3 181348Z 22012KT 09/M01 A2972 RMK A01 T00871010  RH  050%=      5-min Rain = 0
KAM3 181349Z 22011KT 09/M01 A2972 RMK A01 T00871010  RH  050%=      5-min Rain = 0
KAM3 181350Z 22012KT 09/M01 A2972 RMK A01 T00871010  RH  050%=      5-min Rain = 0
KAM3 181351Z 22011KT 09/M01 A2972 RMK A01 T00881010  RH  050%=      5-min Rain = 0
KAM3 181352Z 22011KT 09/M01 A2972 RMK A01 T00881010  RH  050%=      5-min Rain = 0
KAM3 181353Z 22010KT 09/M01 A2972 RMK A01 T00881009  RH  050%=      5-min Rain = 0
KAM3 181354Z 22010KT 09/M01 A2972 RMK A01 T00891009  RH  050%=      5-min Rain = 0
KAM3 181355Z 22010KT 09/M01 A2972 RMK A01 T00891009  RH  050%=      5-min Rain = 0
KAM3 181356Z 22010KT 09/M01 A2972 RMK A01 T00891009  RH  050%=      5-min Rain = 0
KAM3 181357Z 22010KT 09/M01 A2972 RMK A01 T00891009  RH  050%=      5-min Rain = 0
KAM3 181358Z 22011KT 09/M01 A2972 RMK A01 T00891009  RH  050%=      5-min Rain = 0
KAM3 181359Z 22011KT 09/M01 A2972 RMK A01 T00891009  RH  050%=      5-min Rain = 0
KAM3 181400Z 22012KT 09/M01 A2972 RMK A01 T00901008  RH  050%=      5-min Rain = 0
KAM3 181401Z 22012KT 09/M01 A2972 RMK A01 T00901009  RH  050%=      5-min Rain = 0
KAM3 181402Z 22011KT 09/M01 A2972 RMK A01 T00901008  RH  050%=      5-min Rain = 0
KAM3 181403Z 22012KT 09/M01 A2972 RMK A01 T00901008  RH  050%=      5-min Rain = 0
KAM3 181404Z 22012KT 09/M01 A2972 RMK A01 T00901008  RH  050%=      5-min Rain = 0
KAM3 181405Z 22013KT 09/M01 A2972 RMK A01 T00901008  RH  050%=      5-min Rain = 0
KAM3 181406Z 22012KT 09/M01 A2972 RMK A01 T00911008  RH  050%=      5-min Rain = 0
KAM3 181407Z 22011KT 09/M01 A2972 RMK A01 T00921007  RH  050%=      5-min Rain = 0
KAM3 181408Z 22011KT 09/M01 A2972 RMK A01 T00921007  RH  050%=      5-min Rain = 0
KAM3 181409Z 22011KT 09/M01 A2972 RMK A01 T00921007  RH  050%=      5-min Rain = 0
KAM3 181410Z 22011KT 09/M01 A2972 RMK A01 T00921007  RH  050%=      5-min Rain = 0
KAM3 181411Z 22012KT 09/M01 A2972 RMK A01 T00911007  RH  050%=      5-min Rain = 0
KAM3 181412Z 22012KT 09/M01 A2972 RMK A01 T00921006  RH  050%=      5-min Rain = 0
KAM3 181413Z 22013KT 09/M01 A2972 RMK A01 T00931006  RH  050%=      5-min Rain = 0
KAM3 181414Z 23013KT 09/M01 A2972 RMK A01 T00941005  RH  050%=      5-min Rain = 0
KAM3 181415Z 23014KT 10/M01 A2972 RMK A01 T00951005  RH  050%=      5-min Rain = 0
KAM3 181416Z 23013KT 10/M00 A2972 RMK A01 T00971004  RH  049%=      5-min Rain = 0
KAM3 181417Z 23012KT 10/M00 A2972 RMK A01 T00981004  RH  049%=      5-min Rain = 0
KAM3 181418Z 23011KT 10/M00 A2972 RMK A01 T00981004  RH  049%=      5-min Rain = 0
KAM3 181419Z 23012KT 10/M00 A2972 RMK A01 T00981004  RH  049%=      5-min Rain = 0
KAM3 181420Z 24013KT 10/M00 A2972 RMK A01 T00991004  RH  049%=      5-min Rain = 0
KAM3 181421Z 23012KT 10/M00 A2972 RMK A01 T00991004  RH  049%=      5-min Rain = 0
KAM3 181422Z 23011KT 10/M00 A2972 RMK A01 T00991004  RH  049%=      5-min Rain = 0
KAM3 181423Z 23011KT 10/M00 A2972 RMK A01 T00991004  RH  049%=      5-min Rain = 0
KAM3 181424Z 23011KT 10/M00 A2972 RMK A01 T00991004  RH  049%=      5-min Rain = 0
KAM3 181425Z 23010KT 10/M00 A2972 RMK A01 T00991003  RH  049%=      5-min Rain = 0
KAM3 181426Z 23011KT 10/M00 A2972 RMK A01 T00991003  RH  049%=      5-min Rain = 0
KAM3 181427Z 23011KT 10/M00 A2972 RMK A01 T00991003  RH  049%=      5-min Rain = 0
KAM3 181428Z 23011KT 10/M00 A2972 RMK A01 T00991003  RH  049%=      5-min Rain = 0
KAM3 181429Z 23010KT 10/M00 A2972 RMK A01 T00991002  RH  049%=      5-min Rain = 0
KAM3 181430Z 23011KT 10/M00 A2972 RMK A01 T00991003  RH  049%=      5-min Rain = 0
KAM3 181431Z 23011G16KT 10/M00 A2972 RMK A01 T01001002  RH  049%=      5-min Rain = 0
KAM3 181432Z 23011KT 10/M00 A2972 RMK A01 T01001002  RH  049%=      5-min Rain = 0
KAM3 181433Z 23011KT 10/M00 A2972 RMK A01 T01001002  RH  049%=      5-min Rain = 0
KAM3 181434Z 23012KT 10/M00 A2972 RMK A01 T01001002  RH  049%=      5-min Rain = 0
KAM3 181435Z 23013KT 10/M00 A2972 RMK A01 T01011002  RH  049%=      5-min Rain = 0
KAM3 181436Z 23013KT 10/M00 A2972 RMK A01 T01011001  RH  049%=      5-min Rain = 0
KAM3 181437Z 23012KT 10/M00 A2972 RMK A01 T01021001  RH  049%=      5-min Rain = 0
KAM3 181438Z 23012KT 10/M00 A2972 RMK A01 T01021001  RH  049%=      5-min Rain = 0
KAM3 181439Z 23013KT 10/M00 A2972 RMK A01 T01021001  RH  049%=      5-min Rain = 0
KAM3 181440Z 23014KT 10/00 A2972 RMK A01 T010300-0  RH  049%=      5-min Rain = 0
KAM3 181441Z 23014KT 10/00 A2972 RMK A01 T01030000  RH  049%=      5-min Rain = 0
KAM3 181442Z 23011KT 10/00 A2972 RMK A01 T01040000  RH  049%=      5-min Rain = 0
KAM3 181443Z 23012KT 10/00 A2972 RMK A01 T01040001  RH  049%=      5-min Rain = 0
KAM3 181444Z 24011KT 10/00 A2972 RMK A01 T01040001  RH  049%=      5-min Rain = 0
KAM3 181445Z 24011KT 11/00 A2972 RMK A01 T01050001  RH  049%=      5-min Rain = 0
KAM3 181446Z 24010KT 10/00 A2972 RMK A01 T01040001  RH  049%=      5-min Rain = 0
KAM3 181447Z 24011KT 10/00 A2972 RMK A01 T01040001  RH  049%=      5-min Rain = 0
KAM3 181448Z 24013KT 11/00 A2972 RMK A01 T01050001  RH  049%=      5-min Rain = 0
KAM3 181449Z 24012KT 11/00 A2972 RMK A01 T01060002  RH  049%=      5-min Rain = 0
KAM3 181450Z 24010KT 11/00 A2972 RMK A01 T01070002  RH  048%=      5-min Rain = 0
KAM3 181451Z 24010KT 11/00 A2972 RMK A01 T01070002  RH  048%=      5-min Rain = 0
KAM3 181452Z 25011KT 11/00 A2972 RMK A01 T01070002  RH  049%=      5-min Rain = 0
KAM3 181453Z 24010KT 11/00 A2971 RMK A01 T01070003  RH  049%=      5-min Rain = 0
KAM3 181454Z 24012KT 11/00 A2971 RMK A01 T01070002  RH  049%=      5-min Rain = 0
KAM3 181455Z 24011KT 11/00 A2971 RMK A01 T01070002  RH  048%=      5-min Rain = 0
KAM3 181456Z 24011KT 11/00 A2971 RMK A01 T01070003  RH  048%=      5-min Rain = 0
KAM3 181457Z 23011KT 11/00 A2971 RMK A01 T01070003  RH  048%=      5-min Rain = 0
KAM3 181458Z 23013KT 11/00 A2971 RMK A01 T01070003  RH  048%=      5-min Rain = 0
KAM3 181459Z 23012KT 11/00 A2971 RMK A01 T01080003  RH  048%=      5-min Rain = 0
KAM3 181500Z 23011KT 11/00 A2971 RMK A01 T01080003  RH  048%=      5-min Rain = 0
KAM3 181501Z 23011KT 11/00 A2971 RMK A01 T01080003  RH  048%=      5-min Rain = 0
KAM3 181502Z 23010KT 11/00 A2971 RMK A01 T01080004  RH  048%=      5-min Rain = 0
KAM3 181503Z 23011KT 11/00 A2971 RMK A01 T01080003  RH  048%=      5-min Rain = 0
KAM3 181504Z 23010KT 11/00 A2971 RMK A01 T01080004  RH  048%=      5-min Rain = 0
KAM3 181505Z 23013KT 11/00 A2971 RMK A01 T01080004  RH  049%=      5-min Rain = 0
KAM3 181506Z 24011KT 11/00 A2971 RMK A01 T01080004  RH  049%=      5-min Rain = 0
KAM3 181507Z 24012KT 11/00 A2971 RMK A01 T01080004  RH  049%=      5-min Rain = 0
KAM3 181508Z 24010KT 11/01 A2971 RMK A01 T01090005  RH  049%=      5-min Rain = 0
KAM3 181509Z 24011KT 11/01 A2971 RMK A01 T01090005  RH  049%=      5-min Rain = 0
KAM3 181510Z 24012KT 11/01 A2971 RMK A01 T01090006  RH  049%=      5-min Rain = 0
KAM3 181511Z 24013KT 11/01 A2971 RMK A01 T01090007  RH  049%=      5-min Rain = 0
KAM3 181512Z 24014KT 11/01 A2971 RMK A01 T01100008  RH  049%=      5-min Rain = 0
KAM3 181513Z 24015KT 11/01 A2971 RMK A01 T01110008  RH  049%=      5-min Rain = 0
KAM3 181514Z 24016KT 11/01 A2971 RMK A01 T01130010  RH  049%=      5-min Rain = 0
KAM3 181515Z 24016KT 12/01 A297 RMK A01 T01150011  RH  049%=      5-min Rain = 0
KAM3 181516Z 24016KT 12/01 A297 RMK A01 T01160012  RH  049%=      5-min Rain = 0
KAM3 181517Z 24016G21KT 12/01 A297 RMK A01 T01180013  RH  049%=      5-min Rain = 0
KAM3 181518Z 25017G22KT 12/01 A297 RMK A01 T01190014  RH  048%=      5-min Rain = 0
KAM3 181519Z 25017G22KT 12/01 A2971 RMK A01 T01200014  RH  048%=      5-min Rain = 0
KAM3 181520Z 24016G22KT 12/02 A2971 RMK A01 T01210015  RH  048%=      5-min Rain = 0
KAM3 181521Z 24021G27KT 12/02 A297 RMK A01 T01220016  RH  048%=      5-min Rain = 0
KAM3 181522Z 25025KT 12/02 A297 RMK A01 T01240017  RH  048%=      5-min Rain = 0
KAM3 181523Z 25018KT 13/02 A297 RMK A01 T01260018  RH  048%=      5-min Rain = 0
KAM3 181524Z 25021KT 13/02 A297 RMK A01 T01260018  RH  048%=      5-min Rain = 0
KAM3 181525Z 25020G25KT 13/02 A297 RMK A01 T01260018  RH  048%=      5-min Rain = 0
KAM3 181526Z 25017G22KT 13/02 A297 RMK A01 T01270019  RH  048%=      5-min Rain = 0
KAM3 181527Z 25021KT 13/02 A297 RMK A01 T01270019  RH  048%=      5-min Rain = 0
KAM3 181528Z 24022KT 13/02 A297 RMK A01 T01270018  RH  048%=      5-min Rain = 0
KAM3 181529Z 24021G26KT 13/02 A297 RMK A01 T01280019  RH  047%=      5-min Rain = 0
KAM3 181530Z 25019G24KT 13/02 A297 RMK A01 T01280019  RH  047%=      5-min Rain = 0
KAM3 181531Z 24020KT 13/02 A297 RMK A01 T01280019  RH  047%=      5-min Rain = 0
KAM3 181532Z 25020G26KT 13/02 A297 RMK A01 T01280019  RH  047%=      5-min Rain = 0
KAM3 181533Z 25020KT 13/02 A297 RMK A01 T01290019  RH  047%=      5-min Rain = 0
KAM3 181534Z 25019G25KT 13/02 A297 RMK A01 T01290019  RH  047%=      5-min Rain = 0
KAM3 181535Z 25025KT 13/02 A297 RMK A01 T01290020  RH  047%=      5-min Rain = 0
KAM3 181536Z 25024G29KT 13/02 A297 RMK A01 T01290019  RH  047%=      5-min Rain = 0
KAM3 181537Z 25020KT 13/02 A297 RMK A01 T01290019  RH  047%=      5-min Rain = 0
KAM3 181538Z 25021G26KT 13/02 A2969 RMK A01 T01300020  RH  047%=      5-min Rain = 0
KAM3 181539Z 25024KT 13/02 A2969 RMK A01 T01300020  RH  047%=      5-min Rain = 0
KAM3 181540Z 25021KT 13/02 A2969 RMK A01 T01300020  RH  047%=      5-min Rain = 0
KAM3 181541Z 25023KT 13/02 A2969 RMK A01 T01300020  RH  047%=      5-min Rain = 0
KAM3 181542Z 25021KT 13/02 A2969 RMK A01 T01300020  RH  047%=      5-min Rain = 0
KAM3 181543Z 25024KT 13/02 A2969 RMK A01 T01300021  RH  047%=      5-min Rain = 0
KAM3 181544Z 25020KT 13/02 A2969 RMK A01 T01300021  RH  048%=      5-min Rain = 0
KAM3 181545Z 25021G27KT 13/02 A2969 RMK A01 T01300022  RH  048%=      5-min Rain = 0
KAM3 181546Z 24023KT 13/02 A2969 RMK A01 T01300022  RH  048%=      5-min Rain = 0
KAM3 181547Z 24023KT 13/02 A2968 RMK A01 T01300022  RH  048%=      5-min Rain = 0
KAM3 181548Z 25024G30KT 13/02 A2968 RMK A01 T01300022  RH  048%=      5-min Rain = 0
KAM3 181549Z 25023KT 13/02 A2968 RMK A01 T01300022  RH  048%=      5-min Rain = 0
KAM3 181550Z 25026KT 13/02 A2968 RMK A01 T01290022  RH  048%=      5-min Rain = 0
KAM3 181551Z 24022KT 13/02 A2968 RMK A01 T01290023  RH  048%=      5-min Rain = 0
KAM3 181552Z 24025G31KT 13/02 A2968 RMK A01 T01290023  RH  048%=      5-min Rain = 0
KAM3 181553Z 24021G26KT 13/02 A2968 RMK A01 T01290023  RH  048%=      5-min Rain = 0
KAM3 181554Z 24021KT 13/02 A2968 RMK A01 T01290023  RH  049%=      5-min Rain = 0
KAM3 181555Z 24025G33KT 13/02 A2968 RMK A01 T01290024  RH  049%=      5-min Rain = 0
KAM3 181556Z 24027KT 13/02 A2968 RMK A01 T01290023  RH  049%=      5-min Rain = 0
KAM3 181557Z 24022G27KT 13/02 A2968 RMK A01 T01290023  RH  049%=      5-min Rain = 0
KAM3 181558Z 24026KT 13/02 A2968 RMK A01 T01290024  RH  049%=      5-min Rain = 0
KAM3 181559Z 25020G25KT 13/02 A2968 RMK A01 T01290024  RH  049%=      5-min Rain = 0
KAM3 181600Z 24020G25KT 13/02 A2968 RMK A01 T01290024  RH  049%=      5-min Rain = 0
KAM3 181601Z 24020G27KT 13/02 A2968 RMK A01 T01290024  RH  049%=      5-min Rain = 0
KAM3 181602Z 24025G33KT 13/02 A2968 RMK A01 T01290024  RH  049%=      5-min Rain = 0
KAM3 181603Z 24022KT 13/02 A2968 RMK A01 T01290023  RH  049%=      5-min Rain = 0
KAM3 181604Z 24023G31KT 13/02 A2967 RMK A01 T01300024  RH  049%=      5-min Rain = 0
KAM3 181605Z 24026G32KT 13/02 A2968 RMK A01 T01300024  RH  049%=      5-min Rain = 0
KAM3 181606Z 25024G32KT 13/02 A2968 RMK A01 T01300024  RH  049%=      5-min Rain = 0
KAM3 181607Z 24021KT 13/02 A2968 RMK A01 T01300024  RH  049%=      5-min Rain = 0
KAM3 181608Z 24025G30KT 13/02 A2967 RMK A01 T01290024  RH  049%=      5-min Rain = 0
KAM3 181609Z 24027KT 13/02 A2967 RMK A01 T01300024  RH  048%=      5-min Rain = 0
KAM3 181610Z 24024G30KT 13/02 A2967 RMK A01 T01300024  RH  048%=      5-min Rain = 0
KAM3 181611Z 24023KT 13/02 A2967 RMK A01 T01300023  RH  048%=      5-min Rain = 0
KAM3 181612Z 24022KT 13/02 A2967 RMK A01 T01290023  RH  048%=      5-min Rain = 0
KAM3 181613Z 24022KT 13/02 A2967 RMK A01 T01300024  RH  049%=      5-min Rain = 0
KAM3 181614Z 24026G32KT 13/02 A2967 RMK A01 T01300024  RH  049%=      5-min Rain = 0
KAM3 181615Z 24026KT 13/02 A2967 RMK A01 T01300024  RH  049%=      5-min Rain = 0
KAM3 181616Z 24024G30KT 13/02 A2967 RMK A01 T01300024  RH  049%=      5-min Rain = 0
KAM3 181617Z 24026G31KT 13/03 A2967 RMK A01 T01300025  RH  049%=      5-min Rain = 0
KAM3 181618Z 23027KT 13/03 A2967 RMK A01 T01310025  RH  049%=      5-min Rain = 0
KAM3 181619Z 24025KT 13/03 A2967 RMK A01 T01300025  RH  049%=      5-min Rain = 0
KAM3 181620Z 24021G27KT 13/03 A2967 RMK A01 T01300025  RH  049%=      5-min Rain = 0
KAM3 181621Z 24026KT 13/03 A2967 RMK A01 T01310025  RH  049%=      5-min Rain = 0
KAM3 181622Z 23024KT 13/03 A2967 RMK A01 T01310025  RH  049%=      5-min Rain = 0
KAM3 181623Z 23024G29KT 13/03 A2967 RMK A01 T01310025  RH  049%=      5-min Rain = 0
KAM3 181624Z 24025G30KT 13/03 A2967 RMK A01 T01310026  RH  049%=      5-min Rain = 0
KAM3 181625Z 24025G30KT 13/03 A2967 RMK A01 T01320026  RH  049%=      5-min Rain = 0
KAM3 181626Z 24023KT 13/03 A2967 RMK A01 T01330026  RH  049%=      5-min Rain = 0
KAM3 181627Z 23025KT 13/03 A2967 RMK A01 T01320026  RH  049%=      5-min Rain = 0
KAM3 181628Z 24023G29KT 13/03 A2967 RMK A01 T01330027  RH  049%=      5-min Rain = 0
KAM3 181629Z 24024KT 13/03 A2967 RMK A01 T01330026  RH  048%=      5-min Rain = 0
KAM3 181630Z 23022KT 13/03 A2967 RMK A01 T01330027  RH  048%=      5-min Rain = 0
KAM3 181631Z 24023G29KT 13/03 A2967 RMK A01 T01340027  RH  048%=      5-min Rain = 0
KAM3 181632Z 24021G26KT 13/03 A2967 RMK A01 T01340027  RH  048%=      5-min Rain = 0
KAM3 181633Z 24018G24KT 13/03 A2968 RMK A01 T01340027  RH  048%=      5-min Rain = 0
KAM3 181634Z 24020KT 14/03 A2968 RMK A01 T01350028  RH  048%=      5-min Rain = 0
KAM3 181635Z 24025G31KT 14/03 A2967 RMK A01 T01350027  RH  048%=      5-min Rain = 0
KAM3 181636Z 24025KT 14/03 A2967 RMK A01 T01350027  RH  048%=      5-min Rain = 0
KAM3 181637Z 24022G27KT 14/03 A2967 RMK A01 T01350027  RH  048%=      5-min Rain = 0
KAM3 181638Z 24019KT 14/03 A2967 RMK A01 T01360027  RH  048%=      5-min Rain = 0
KAM3 181639Z 24021G28KT 14/03 A2967 RMK A01 T01360028  RH  048%=      5-min Rain = 0
KAM3 181640Z 24025G30KT 14/03 A2967 RMK A01 T01350027  RH  048%=      5-min Rain = 0
KAM3 181641Z 23025G30KT 14/03 A2967 RMK A01 T01360028  RH  048%=      5-min Rain = 0
KAM3 181642Z 24026G32KT 14/03 A2967 RMK A01 T01350028  RH  048%=      5-min Rain = 0
KAM3 181643Z 24026G32KT 14/03 A2967 RMK A01 T01350028  RH  048%=      5-min Rain = 0
KAM3 181644Z 24030KT 14/03 A2967 RMK A01 T01350028  RH  048%=      5-min Rain = 0
KAM3 181645Z 24027G32KT 14/03 A2967 RMK A01 T01350028  RH  048%=      5-min Rain = 0
KAM3 181646Z 24027G33KT 14/03 A2967 RMK A01 T01350029  RH  049%=      5-min Rain = 0
KAM3 181647Z 24023KT 14/03 A2967 RMK A01 T01350029  RH  049%=      5-min Rain = 0
KAM3 181648Z 24019G25KT 14/03 A2967 RMK A01 T01350029  RH  049%=      5-min Rain = 0
KAM3 181649Z 24023KT 14/03 A2967 RMK A01 T01350029  RH  049%=      5-min Rain = 0
KAM3 181650Z 25024G29KT 14/03 A2968 RMK A01 T01350029  RH  049%=      5-min Rain = 0
KAM3 181651Z 24021KT 14/03 A2968 RMK A01 T01350029  RH  049%=      5-min Rain = 0
KAM3 181652Z 24021G26KT 13/03 A2968 RMK A01 T01340029  RH  049%=      5-min Rain = 0
KAM3 181653Z 24023KT 13/03 A2967 RMK A01 T01340029  RH  049%=      5-min Rain = 0
KAM3 181654Z 24023G28KT 13/03 A2967 RMK A01 T01340029  RH  049%=      5-min Rain = 0
KAM3 181655Z 24026G31KT 13/03 A2967 RMK A01 T01340029  RH  049%=      5-min Rain = 0
KAM3 181656Z 24023KT 13/03 A2967 RMK A01 T01340029  RH  049%=      5-min Rain = 0
KAM3 181657Z 24020KT 13/03 A2968 RMK A01 T01340029  RH  049%=      5-min Rain = 0
KAM3 181658Z 24023KT 13/03 A2967 RMK A01 T01340029  RH  049%=      5-min Rain = 0
KAM3 181659Z 24019G24KT 13/03 A2967 RMK A01 T01340029  RH  049%=      5-min Rain = 0
KAM3 181700Z 25021KT 13/03 A2967 RMK A01 T01340029  RH  049%=      5-min Rain = 0
KAM3 181701Z 24021G26KT 14/03 A2967 RMK A01 T01350030  RH  049%=      5-min Rain = 0
KAM3 181702Z 25025KT 14/03 A2967 RMK A01 T01350029  RH  049%=      5-min Rain = 0
KAM3 181703Z 25022KT 14/03 A2967 RMK A01 T01350029  RH  049%=      5-min Rain = 0
KAM3 181704Z 25022G27KT 14/03 A2967 RMK A01 T01350029  RH  049%=      5-min Rain = 0
KAM3 181705Z 25024KT 14/03 A2967 RMK A01 T01350029  RH  049%=      5-min Rain = 0
KAM3 181706Z 24021KT 14/03 A2967 RMK A01 T01360030  RH  049%=      5-min Rain = 0
KAM3 181707Z 25022G27KT 14/03 A2967 RMK A01 T01360030  RH  049%=      5-min Rain = 0
KAM3 181708Z 24021KT 14/03 A2967 RMK A01 T01370030  RH  048%=      5-min Rain = 0
KAM3 181709Z 25021KT 14/03 A2967 RMK A01 T01370030  RH  048%=      5-min Rain = 0
KAM3 181710Z 24019KT 14/03 A2967 RMK A01 T01380031  RH  048%=      5-min Rain = 0
KAM3 181711Z 25022KT 14/03 A2967 RMK A01 T01390031  RH  048%=      5-min Rain = 0
KAM3 181712Z 25021KT 14/03 A2967 RMK A01 T01390031  RH  048%=      5-min Rain = 0
KAM3 181713Z 25022KT 14/03 A2967 RMK A01 T01400031  RH  048%=      5-min Rain = 0
KAM3 181714Z 25021G26KT 14/03 A2967 RMK A01 T01410031  RH  047%=      5-min Rain = 0
KAM3 181715Z 25022KT 14/03 A2967 RMK A01 T01410031  RH  047%=      5-min Rain = 0
KAM3 181716Z 25021KT 14/03 A2967 RMK A01 T01420031  RH  047%=      5-min Rain = 0
KAM3 181717Z 25017KT 14/03 A2967 RMK A01 T01420031  RH  047%=      5-min Rain = 0
KAM3 181718Z 25015G20KT 14/03 A2967 RMK A01 T01420031  RH  047%=      5-min Rain = 0
KAM3 181719Z 24019KT 14/03 A2967 RMK A01 T01430032  RH  047%=      5-min Rain = 0
KAM3 181720Z 24016KT 14/03 A2967 RMK A01 T01430032  RH  047%=      5-min Rain = 0
KAM3 181721Z 24015G20KT 14/03 A2967 RMK A01 T01440032  RH  047%=      5-min Rain = 0
KAM3 181722Z 25017KT 14/03 A2967 RMK A01 T01440031  RH  047%=      5-min Rain = 0
KAM3 181723Z 25023KT 14/03 A2966 RMK A01 T01440031  RH  046%=      5-min Rain = 0
KAM3 181724Z 25022KT 14/03 A2966 RMK A01 T01440030  RH  046%=      5-min Rain = 0
KAM3 181725Z 25017KT 14/03 A2966 RMK A01 T01440030  RH  046%=      5-min Rain = 0
KAM3 181726Z 25016KT 14/03 A2966 RMK A01 T01440031  RH  047%=      5-min Rain = 0
KAM3 181727Z 25016KT 14/03 A2966 RMK A01 T01440031  RH  047%=      5-min Rain = 0
KAM3 181728Z 25015KT 14/03 A2966 RMK A01 T01440031  RH  047%=      5-min Rain = 0
KAM3 181729Z 25016KT 15/03 A2966 RMK A01 T01450031  RH  046%=      5-min Rain = 0
KAM3 181730Z 25015KT 15/03 A2966 RMK A01 T01450032  RH  046%=      5-min Rain = 0
KAM3 181731Z 25016G22KT 15/03 A2966 RMK A01 T01460031  RH  046%=      5-min Rain = 0
KAM3 181732Z 25017KT 15/03 A2966 RMK A01 T01470031  RH  046%=      5-min Rain = 0
KAM3 181733Z 25017G22KT 15/03 A2966 RMK A01 T01480030  RH  045%=      5-min Rain = 0
KAM3 181734Z 25017KT 15/03 A2966 RMK A01 T01490031  RH  045%=      5-min Rain = 0
KAM3 181735Z 25024KT 15/03 A2966 RMK A01 T01530031  RH  044%=      5-min Rain = 0
KAM3 181736Z 24020G25KT 16/03 A2965 RMK A01 T01550031  RH  043%=      5-min Rain = 0
KAM3 181737Z 24019KT 16/03 A2965 RMK A01 T01590033  RH  043%=      5-min Rain = 0
KAM3 181738Z 25020KT 16/03 A2965 RMK A01 T01610031  RH  042%=      5-min Rain = 0
KAM3 181739Z 25021G26KT 16/03 A2965 RMK A01 T01600030  RH  041%=      5-min Rain = 0
KAM3 181740Z 25020KT 16/03 A2965 RMK A01 T01600029  RH  042%=      5-min Rain = 0
KAM3 181741Z 25019KT 16/03 A2965 RMK A01 T01600030  RH  042%=      5-min Rain = 0
KAM3 181742Z 25019KT 16/03 A2965 RMK A01 T01620029  RH  041%=      5-min Rain = 0
KAM3 181743Z 26022G27KT 16/03 A2965 RMK A01 T01640030  RH  041%=      5-min Rain = 0
KAM3 181744Z 26022KT 17/03 A2965 RMK A01 T01670029  RH  040%=      5-min Rain = 0
KAM3 181745Z 25024KT 17/03 A2965 RMK A01 T01680027  RH  039%=      5-min Rain = 0
KAM3 181746Z 26020G26KT 17/03 A2965 RMK A01 T01670027  RH  039%=      5-min Rain = 0
KAM3 181747Z 26022KT 17/03 A2965 RMK A01 T01670027  RH  039%=      5-min Rain = 0
KAM3 181748Z 25022KT 17/03 A2965 RMK A01 T01670027  RH  039%=      5-min Rain = 0
KAM3 181749Z 25020KT 17/03 A2964 RMK A01 T01680029  RH  039%=      5-min Rain = 0
KAM3 181750Z 25020KT 17/03 A2964 RMK A01 T01700028  RH  039%=      5-min Rain = 0
KAM3 181751Z 26021G26KT 17/03 A2964 RMK A01 T01700028  RH  039%=      5-min Rain = 0
KAM3 181752Z 27019KT 17/03 A2964 RMK A01 T01700027  RH  038%=      5-min Rain = 0
KAM3 181753Z 27017KT 17/03 A2964 RMK A01 T01720027  RH  038%=      5-min Rain = 0
KAM3 181754Z 26021G26KT 17/03 A2964 RMK A01 T01730026  RH  037%=      5-min Rain = 0
KAM3 181755Z 26023KT 17/02 A2964 RMK A01 T01720023  RH  037%=      5-min Rain = 0
KAM3 181756Z 25019G25KT 17/02 A2964 RMK A01 T01710023  RH  037%=      5-min Rain = 0
KAM3 181757Z 25022G27KT 17/02 A2964 RMK A01 T01710022  RH  037%=      5-min Rain = 0
KAM3 181758Z 26022KT 17/02 A2964 RMK A01 T01680020  RH  037%=      5-min Rain = 0
KAM3 181759Z 26022KT 17/02 A2964 RMK A01 T01650021  RH  038%=      5-min Rain = 0
KAM3 181800Z 25020KT 17/02 A2964 RMK A01 T01650020  RH  038%=      5-min Rain = 0
KAM3 181801Z 24023G30KT 17/02 A2964 RMK A01 T01650021  RH  038%=      5-min Rain = 0
KAM3 181802Z 25023KT 17/02 A2964 RMK A01 T01650018  RH  037%=      5-min Rain = 0
KAM3 181803Z 25024G29KT 16/02 A2964 RMK A01 T01640017  RH  037%=      5-min Rain = 0
KAM3 181804Z 26024G31KT 16/02 A2964 RMK A01 T01630017  RH  037%=      5-min Rain = 0
KAM3 181805Z 25026KT 16/02 A2963 RMK A01 T01630017  RH  037%=      5-min Rain = 0
KAM3 181806Z 25023KT 16/02 A2963 RMK A01 T01620017  RH  037%=      5-min Rain = 0
KAM3 181807Z 25024KT 16/02 A2963 RMK A01 T01640018  RH  037%=      5-min Rain = 0
KAM3 181808Z 25022G30KT 17/02 A2963 RMK A01 T01660019  RH  037%=      5-min Rain = 0
KAM3 181809Z 25022G29KT 17/02 A2963 RMK A01 T01720022  RH  037%=      5-min Rain = 0
KAM3 181810Z 26026KT 18/02 A2963 RMK A01 T01760019  RH  035%=      5-min Rain = 0
KAM3 181811Z 25023KT 18/02 A2963 RMK A01 T01750017  RH  034%=      5-min Rain = 0
KAM3 181812Z 26026G32KT 18/02 A2963 RMK A01 T01760017  RH  034%=      5-min Rain = 0
KAM3 181813Z 25023G29KT 18/02 A2963 RMK A01 T01770016  RH  034%=      5-min Rain = 0
KAM3 181814Z 27024KT 18/02 A2963 RMK A01 T01780017  RH  034%=      5-min Rain = 0
KAM3 181815Z 26027KT 18/02 A2962 RMK A01 T01780015  RH  033%=      5-min Rain = 0
KAM3 181816Z 25023KT 18/02 A2962 RMK A01 T01770015  RH  033%=      5-min Rain = 0
KAM3 181817Z 25022KT 18/01 A2963 RMK A01 T01780014  RH  033%=      5-min Rain = 0
KAM3 181818Z 25025G30KT 18/01 A2962 RMK A01 T01780012  RH  033%=      5-min Rain = 0
KAM3 181819Z 26024KT 18/01 A2963 RMK A01 T01760014  RH  033%=      5-min Rain = 0
KAM3 181820Z 26024KT 18/01 A2962 RMK A01 T01780014  RH  033%=      5-min Rain = 0
KAM3 181821Z 25021KT 18/01 A2962 RMK A01 T01790014  RH  033%=      5-min Rain = 0
KAM3 181822Z 26022G28KT 18/01 A2962 RMK A01 T01820014  RH  032%=      5-min Rain = 0
KAM3 181823Z 26023KT 18/01 A2962 RMK A01 T01820013  RH  032%=      5-min Rain = 0
KAM3 181824Z 26020KT 18/01 A2962 RMK A01 T01810013  RH  032%=      5-min Rain = 0
KAM3 181825Z 26017KT 18/01 A2962 RMK A01 T01810014  RH  033%=      5-min Rain = 0
KAM3 181826Z 26022G27KT 18/01 A2962 RMK A01 T01840013  RH  032%=      5-min Rain = 0
KAM3 181827Z 27025G33KT 19/01 A2961 RMK A01 T01860012  RH  031%=      5-min Rain = 0
KAM3 181828Z 27025KT 19/01 A2961 RMK A01 T01860005  RH  030%=      5-min Rain = 0
KAM3 181829Z 27023G29KT 18/00 A2961 RMK A01 T01840004  RH  030%=      5-min Rain = 0
KAM3 181830Z 27025G31KT 19/01 A2961 RMK A01 T01850006  RH  030%=      5-min Rain = 0
KAM3 181831Z 26020KT 18/00 A2961 RMK A01 T01810004  RH  030%=      5-min Rain = 0
KAM3 181832Z 27023G28KT 18/01 A2961 RMK A01 T01780005  RH  031%=      5-min Rain = 0
KAM3 181833Z 26023KT 18/01 A2961 RMK A01 T01750006  RH  032%=      5-min Rain = 0
KAM3 181834Z 27019KT 17/01 A2961 RMK A01 T01730007  RH  033%=      5-min Rain = 0
KAM3 181835Z 26016G21KT 17/01 A2961 RMK A01 T01730008  RH  033%=      5-min Rain = 0
KAM3 181836Z 27020KT 18/01 A2961 RMK A01 T01760010  RH  033%=      5-min Rain = 0
KAM3 181837Z 27022KT 18/01 A2961 RMK A01 T01780009  RH  032%=      5-min Rain = 0
KAM3 181838Z 27021KT 18/01 A2961 RMK A01 T01800009  RH  032%=      5-min Rain = 0
KAM3 181839Z 26019KT 18/01 A2961 RMK A01 T01810009  RH  031%=      5-min Rain = 0
KAM3 181840Z 27016KT 18/01 A2961 RMK A01 T01810007  RH  031%=      5-min Rain = 0
KAM3 181841Z 25023G28KT 18/01 A2961 RMK A01 T01810006  RH  031%=      5-min Rain = 0
KAM3 181842Z 25021G26KT 18/00 A296 RMK A01 T01800003  RH  030%=      5-min Rain = 0
KAM3 181843Z 26024G32KT 18/00 A296 RMK A01 T01790003  RH  030%=      5-min Rain = 0
KAM3 181844Z 26023KT 18/00 A296 RMK A01 T01780002  RH  030%=      5-min Rain = 0
KAM3 181845Z 26025G30KT 18/00 A296 RMK A01 T01770001  RH  031%=      5-min Rain = 0
KAM3 181846Z 25028KT 18/M00 A296 RMK A01 T01761001  RH  030%=      5-min Rain = 0
KAM3 181847Z 26025G30KT 17/M00 A296 RMK A01 T01741002  RH  030%=      5-min Rain = 0
KAM3 181848Z 26026G32KT 17/M00 A296 RMK A01 T01731002  RH  031%=      5-min Rain = 0
KAM3 181849Z 26027G32KT 17/M00 A296 RMK A01 T01731002  RH  031%=      5-min Rain = 0
KAM3 181850Z 26019G24KT 17/M00 A296 RMK A01 T01711003  RH  031%=      5-min Rain = 0
KAM3 181851Z 25022G31KT 17/M00 A296 RMK A01 T01711002  RH  031%=      5-min Rain = 0
KAM3 181852Z 26023G29KT 17/M00 A296 RMK A01 T01711002  RH  031%=      5-min Rain = 0
KAM3 181853Z 25022G27KT 17/M00 A296 RMK A01 T01701004  RH  031%=      5-min Rain = 0
KAM3 181854Z 25021KT 17/M00 A296 RMK A01 T01691003  RH  031%=      5-min Rain = 0
KAM3 181855Z 25022KT 17/M00 A296 RMK A01 T01681002  RH  031%=      5-min Rain = 0
KAM3 181856Z 25020KT 17/M00 A296 RMK A01 T01681002  RH  032%=      5-min Rain = 0
KAM3 181857Z 26020G25KT 17/M00 A296 RMK A01 T01671002  RH  032%=      5-min Rain = 0
KAM3 181858Z 26021KT 17/M00 A296 RMK A01 T01681002  RH  032%=      5-min Rain = 0
KAM3 181859Z 27023G28KT 17/M00 A296 RMK A01 T01681004  RH  031%=      5-min Rain = 0
KAM3 181900Z 26024KT 17/M01 A296 RMK A01 T01681005  RH  031%=      5-min Rain = 0
KAM3 181901Z 26025KT 17/M01 A296 RMK A01 T01671008  RH  030%=      5-min Rain = 0
KAM3 181902Z 27020KT 17/M01 A296 RMK A01 T01671009  RH  030%=      5-min Rain = 0
KAM3 181903Z 27020G26KT 17/M01 A296 RMK A01 T01681010  RH  030%=      5-min Rain = 0
KAM3 181904Z 27024KT 17/M01 A296 RMK A01 T01681012  RH  029%=      5-min Rain = 0
KAM3 181905Z 27022G27KT 17/M01 A296 RMK A01 T01681012  RH  029%=      5-min Rain = 0
KAM3 181906Z 26023KT 17/M01 A296 RMK A01 T01681011  RH  030%=      5-min Rain = 0
KAM3 181907Z 26020KT 17/M01 A296 RMK A01 T01681010  RH  030%=      5-min Rain = 0
KAM3 181908Z 27019KT 17/M01 A296 RMK A01 T01691009  RH  030%=      5-min Rain = 0
KAM3 181909Z 27019KT 17/M01 A296 RMK A01 T01701009  RH  030%=      5-min Rain = 0
KAM3 181910Z 27016KT 17/M01 A296 RMK A01 T01721008  RH  029%=      5-min Rain = 0
KAM3 181911Z 26015KT 18/M01 A296 RMK A01 T01751007  RH  029%=      5-min Rain = 0
KAM3 181912Z 26018G23KT 18/M01 A2959 RMK A01 T01781007  RH  029%=      5-min Rain = 0
KAM3 181913Z 27020KT 18/M01 A2959 RMK A01 T01821005  RH  028%=      5-min Rain = 0
KAM3 181914Z 26019G24KT 18/M01 A2959 RMK A01 T01831005  RH  028%=      5-min Rain = 0
KAM3 181915Z 26023G28KT 19/M01 A2959 RMK A01 T01851006  RH  027%=      5-min Rain = 0
KAM3 181916Z 27021KT 19/M01 A2959 RMK A01 T01851009  RH  027%=      5-min Rain = 0
KAM3 181917Z 28018KT 18/M01 A2959 RMK A01 T01841011  RH  027%=      5-min Rain = 0
KAM3 181918Z 27019KT 19/M01 A2959 RMK A01 T01851008  RH  027%=      5-min Rain = 0
KAM3 181919Z 28019KT 19/M01 A2959 RMK A01 T01871010  RH  026%=      5-min Rain = 0
KAM3 181920Z 28017KT 19/M01 A2959 RMK A01 T01871014  RH  026%=      5-min Rain = 0
KAM3 181921Z 28017G23KT 19/M01 A2959 RMK A01 T01871012  RH  026%=      5-min Rain = 0
KAM3 181922Z 26018KT 19/M01 A2959 RMK A01 T01901007  RH  026%=      5-min Rain = 0
KAM3 181923Z 27017G22KT 19/M00 A2959 RMK A01 T01921004  RH  027%=      5-min Rain = 0
KAM3 181924Z 26020G25KT 19/M01 A2959 RMK A01 T01921005  RH  027%=      5-min Rain = 0
KAM3 181925Z 24020G26KT 19/M01 A2959 RMK A01 T01901009  RH  026%=      5-min Rain = 0
KAM3 181926Z 24023G29KT 19/M01 A2958 RMK A01 T01861011  RH  026%=      5-min Rain = 0
KAM3 181927Z 26020G26KT 18/M01 A2958 RMK A01 T01841012  RH  027%=      5-min Rain = 0
KAM3 181928Z 26018KT 19/M01 A2959 RMK A01 T01851009  RH  027%=      5-min Rain = 0
KAM3 181929Z 26023KT 19/M01 A2959 RMK A01 T01881011  RH  026%=      5-min Rain = 0
KAM3 181930Z 27022KT 19/M02 A2959 RMK A01 T01871015  RH  025%=      5-min Rain = 0
KAM3 181931Z 27018KT 19/M01 A2959 RMK A01 T01871014  RH  026%=      5-min Rain = 0
KAM3 181932Z 27020G25KT 19/M01 A2959 RMK A01 T01871014  RH  026%=      5-min Rain = 0
KAM3 181933Z 26024KT 19/M01 A2958 RMK A01 T01881014  RH  025%=      5-min Rain = 0
KAM3 181934Z 26021KT 19/M02 A2959 RMK A01 T01871015  RH  025%=      5-min Rain = 0
KAM3 181935Z 26020G25KT 19/M02 A2959 RMK A01 T01861016  RH  025%=      5-min Rain = 0
KAM3 181936Z 26024KT 19/M02 A2958 RMK A01 T01851017  RH  025%=      5-min Rain = 0
KAM3 181937Z 27027KT 18/M02 A2958 RMK A01 T01831020  RH  025%=      5-min Rain = 0
KAM3 181938Z 28023KT 18/M02 A2959 RMK A01 T01801021  RH  026%=      5-min Rain = 0
KAM3 181939Z 27020G25KT 18/M02 A2959 RMK A01 T01781021  RH  026%=      5-min Rain = 0
KAM3 181940Z 27019KT 18/M02 A2959 RMK A01 T01781021  RH  026%=      5-min Rain = 0
KAM3 181941Z 28016G21KT 18/M02 A2959 RMK A01 T01781020  RH  026%=      5-min Rain = 0
KAM3 181942Z 27011KT 18/M02 A2959 RMK A01 T01801018  RH  026%=      5-min Rain = 0
KAM3 181943Z 27016KT 18/M02 A2959 RMK A01 T01831017  RH  026%=      5-min Rain = 0
KAM3 181944Z 27021KT 19/M02 A2959 RMK A01 T01851020  RH  025%=      5-min Rain = 0
KAM3 181945Z 26019KT 19/M02 A2959 RMK A01 T01851022  RH  024%=      5-min Rain = 0
KAM3 181946Z 27022G27KT 19/M02 A2958 RMK A01 T01861022  RH  024%=      5-min Rain = 0
KAM3 181947Z 25020G25KT 19/M02 A2958 RMK A01 T01861022  RH  024%=      5-min Rain = 0
KAM3 181948Z 26025KT 19/M02 A2958 RMK A01 T01871023  RH  024%=      5-min Rain = 0
KAM3 181949Z 26019KT 19/M02 A2959 RMK A01 T01861024  RH  024%=      5-min Rain = 0
KAM3 181950Z 27017G23KT 19/M02 A2959 RMK A01 T01861023  RH  024%=      5-min Rain = 0
KAM3 181951Z 27016G21KT 19/M02 A2958 RMK A01 T01861023  RH  024%=      5-min Rain = 0
KAM3 181952Z 27021G26KT 19/M02 A2958 RMK A01 T01871023  RH  024%=      5-min Rain = 0
KAM3 181953Z 27021KT 19/M02 A2958 RMK A01 T01881023  RH  024%=      5-min Rain = 0
KAM3 181954Z 28019KT 19/M02 A2958 RMK A01 T01871023  RH  024%=      5-min Rain = 0
KAM3 181955Z 27019KT 18/M03 A2958 RMK A01 T01841025  RH  024%=      5-min Rain = 0
KAM3 181956Z 27016KT 18/M02 A2958 RMK A01 T01821024  RH  025%=      5-min Rain = 0
KAM3 181957Z 28020G25KT 18/M02 A2958 RMK A01 T01821022  RH  025%=      5-min Rain = 0
KAM3 181958Z 27020KT 19/M02 A2958 RMK A01 T01851024  RH  024%=      5-min Rain = 0
KAM3 181959Z 27015G20KT 19/M02 A2958 RMK A01 T01861024  RH  024%=      5-min Rain = 0
KAM3 182000Z 27021KT 19/M02 A2958 RMK A01 T01871022  RH  024%=      5-min Rain = 0
KAM3 182001Z 26020G27KT 19/M02 A2957 RMK A01 T01901022  RH  024%=      5-min Rain = 0
KAM3 182002Z 27017G23KT 19/M02 A2958 RMK A01 T01921022  RH  023%=      5-min Rain = 0
KAM3 182003Z 27025KT 19/M02 A2957 RMK A01 T01941021  RH  023%=      5-min Rain = 0
KAM3 182004Z 27019KT 19/M02 A2958 RMK A01 T01941022  RH  023%=      5-min Rain = 0
KAM3 182005Z 27018G23KT 19/M02 A2957 RMK A01 T01941021  RH  023%=      5-min Rain = 0
KAM3 182006Z 28017KT 20/M02 A2958 RMK A01 T01951021  RH  023%=      5-min Rain = 0
KAM3 182007Z 28016KT 20/M02 A2957 RMK A01 T01951021  RH  023%=      5-min Rain = 0
KAM3 182008Z 29017KT 20/M02 A2957 RMK A01 T01961021  RH  023%=      5-min Rain = 0
KAM3 182009Z 29016KT 19/M02 A2957 RMK A01 T01941022  RH  023%=      5-min Rain = 0
KAM3 182010Z 28018KT 19/M02 A2957 RMK A01 T01921022  RH  023%=      5-min Rain = 0
KAM3 182011Z 27016G21KT 19/M02 A2957 RMK A01 T01921021  RH  024%=      5-min Rain = 0
KAM3 182012Z 27020KT 19/M02 A2957 RMK A01 T01941022  RH  023%=      5-min Rain = 0
KAM3 182013Z 27019KT 19/M02 A2957 RMK A01 T01931023  RH  023%=      5-min Rain = 0
KAM3 182014Z 27015KT 19/M02 A2957 RMK A01 T01921023  RH  023%=      5-min Rain = 0
KAM3 182015Z 27018KT 19/M02 A2957 RMK A01 T01931023  RH  023%=      5-min Rain = 0
KAM3 182016Z 28017KT 20/M02 A2957 RMK A01 T01951024  RH  023%=      5-min Rain = 0
KAM3 182017Z 29014KT 20/M03 A2956 RMK A01 T01951025  RH  023%=      5-min Rain = 0
KAM3 182018Z 28013KT 20/M02 A2956 RMK A01 T01951024  RH  023%=      5-min Rain = 0
KAM3 182019Z 27013G18KT 20/M02 A2956 RMK A01 T01971021  RH  023%=      5-min Rain = 0
KAM3 182020Z 28014KT 20/M02 A2956 RMK A01 T01991023  RH  022%=      5-min Rain = 0
KAM3 182021Z 28015KT 19/M03 A2956 RMK A01 T01941027  RH  022%=      5-min Rain = 0
KAM3 182022Z 27013G18KT 19/M03 A2957 RMK A01 T01881028  RH  023%=      5-min Rain = 0
KAM3 182023Z 27013KT 19/M03 A2957 RMK A01 T01851027  RH  023%=      5-min Rain = 0
KAM3 182024Z 28014KT 18/M03 A2957 RMK A01 T01831027  RH  024%=      5-min Rain = 0
KAM3 182025Z 28020KT 18/M03 A2957 RMK A01 T01821027  RH  024%=      5-min Rain = 0
KAM3 182026Z 29020KT 18/M03 A2957 RMK A01 T01801027  RH  024%=      5-min Rain = 0
KAM3 182027Z 29017KT 18/M03 A2957 RMK A01 T01791027  RH  024%=      5-min Rain = 0
KAM3 182028Z 29016KT 18/M03 A2957 RMK A01 T01781026  RH  025%=      5-min Rain = 0
KAM3 182029Z 29017KT 18/M03 A2957 RMK A01 T01781025  RH  025%=      5-min Rain = 0
KAM3 182030Z 30015KT 18/M02 A2957 RMK A01 T01781023  RH  025%=      5-min Rain = 0
KAM3 182031Z 30016KT 18/M02 A2957 RMK A01 T01781017  RH  027%=      5-min Rain = 0
KAM3 182032Z 29016KT 18/M01 A2957 RMK A01 T01771012  RH  028%=      5-min Rain = 0
KAM3 182033Z 29015G20KT 18/M01 A2957 RMK A01 T01771011  RH  028%=      5-min Rain = 0
KAM3 182034Z 29016KT 18/M01 A2957 RMK A01 T01771012  RH  028%=      5-min Rain = 0
KAM3 182035Z 30013KT 18/M01 A2957 RMK A01 T01761009  RH  028%=      5-min Rain = 0
KAM3 182036Z 30014KT 18/M01 A2957 RMK A01 T01751006  RH  029%=      5-min Rain = 0
KAM3 182037Z 31013KT 18/M01 A2957 RMK A01 T01761007  RH  029%=      5-min Rain = 0
KAM3 182038Z 31015KT 18/M01 A2957 RMK A01 T01771010  RH  028%=      5-min Rain = 0
KAM3 182039Z 31016KT 18/M02 A2957 RMK A01 T01791015  RH  027%=      5-min Rain = 0
KAM3 182040Z 31015G23KT 18/M01 A2957 RMK A01 T01811014  RH  027%=      5-min Rain = 0
KAM3 182041Z 31016KT 18/M02 A2957 RMK A01 T01821019  RH  025%=      5-min Rain = 0
KAM3 182042Z 31017KT 18/M02 A2957 RMK A01 T01831017  RH  026%=      5-min Rain = 0
KAM3 182043Z 30017KT 18/M02 A2957 RMK A01 T01831017  RH  026%=      5-min Rain = 0
KAM3 182044Z 30017KT 18/M02 A2957 RMK A01 T01831017  RH  026%=      5-min Rain = 0
KAM3 182045Z 30018KT 18/M02 A2957 RMK A01 T01841017  RH  025%=      5-min Rain = 0
KAM3 182046Z 29017KT 19/M02 A2957 RMK A01 T01851017  RH  025%=      5-min Rain = 0
KAM3 182047Z 29018KT 19/M02 A2957 RMK A01 T01861015  RH  026%=      5-min Rain = 0
KAM3 182048Z 29018KT 19/M02 A2957 RMK A01 T01861016  RH  025%=      5-min Rain = 0
KAM3 182049Z 29017G22KT 18/M02 A2957 RMK A01 T01831019  RH  025%=      5-min Rain = 0
KAM3 182050Z 30016KT 18/M02 A2957 RMK A01 T01821022  RH  025%=      5-min Rain = 0
KAM3 182051Z 29015KT 18/M03 A2957 RMK A01 T01811025  RH  025%=      5-min Rain = 0
KAM3 182052Z 29016KT 18/M02 A2957 RMK A01 T01801023  RH  025%=      5-min Rain = 0
KAM3 182053Z 29017KT 18/M02 A2957 RMK A01 T01811023  RH  025%=      5-min Rain = 0
KAM3 182054Z 30016KT 18/M02 A2957 RMK A01 T01811020  RH  025%=      5-min Rain = 0
KAM3 182055Z 31017KT 18/M02 A2957 RMK A01 T01811019  RH  026%=      5-min Rain = 0
KAM3 182056Z 30013KT 18/M02 A2957 RMK A01 T01821019  RH  026%=      5-min Rain = 0
KAM3 182057Z 29015KT 18/M02 A2957 RMK A01 T01821018  RH  026%=      5-min Rain = 0
KAM3 182058Z 30015KT 18/M02 A2957 RMK A01 T01811019  RH  026%=      5-min Rain = 0
KAM3 182059Z 30012KT 18/M02 A2957 RMK A01 T01801018  RH  026%=      5-min Rain = 0
KAM3 182100Z 31014KT 18/M02 A2957 RMK A01 T01791017  RH  026%=      5-min Rain = 0
KAM3 182101Z 31015KT 18/M02 A2957 RMK A01 T01781016  RH  027%=      5-min Rain = 0
KAM3 182102Z 31013KT 18/M02 A2957 RMK A01 T01771016  RH  027%=      5-min Rain = 0
KAM3 182103Z 31013G18KT 18/M02 A2957 RMK A01 T01761016  RH  027%=      5-min Rain = 0
KAM3 182104Z 31015KT 18/M02 A2957 RMK A01 T01761016  RH  027%=      5-min Rain = 0
KAM3 182105Z 31016KT 18/M02 A2957 RMK A01 T01761015  RH  027%=      5-min Rain = 0
KAM3 182106Z 31020KT 18/M02 A2957 RMK A01 T01761015  RH  027%=      5-min Rain = 0
KAM3 182107Z 31018KT 18/M02 A2957 RMK A01 T01751016  RH  027%=      5-min Rain = 0
KAM3 182108Z 31014KT 17/M02 A2957 RMK A01 T01741016  RH  027%=      5-min Rain = 0
KAM3 182109Z 31013KT 17/M02 A2957 RMK A01 T01741015  RH  028%=      5-min Rain = 0
KAM3 182110Z 31013KT 17/M01 A2957 RMK A01 T01741014  RH  028%=      5-min Rain = 0
KAM3 182111Z 31016KT 18/M02 A2957 RMK A01 T01751015  RH  028%=      5-min Rain = 0
KAM3 182112Z 30016KT 17/M02 A2957 RMK A01 T01741018  RH  027%=      5-min Rain = 0
KAM3 182113Z 30015KT 17/M02 A2957 RMK A01 T01741019  RH  027%=      5-min Rain = 0
KAM3 182114Z 31014KT 17/M02 A2957 RMK A01 T01741018  RH  027%=      5-min Rain = 0
KAM3 182115Z 31012KT 17/M02 A2957 RMK A01 T01731017  RH  027%=      5-min Rain = 0
KAM3 182116Z 30011KT 17/M02 A2957 RMK A01 T01731016  RH  027%=      5-min Rain = 0
KAM3 182117Z 30012KT 17/M02 A2957 RMK A01 T01731018  RH  027%=      5-min Rain = 0
KAM3 182118Z 31013KT 17/M02 A2957 RMK A01 T01731020  RH  027%=      5-min Rain = 0
KAM3 182119Z 31015KT 17/M02 A2958 RMK A01 T01731018  RH  027%=      5-min Rain = 0
KAM3 182120Z 32013G18KT 17/M02 A2958 RMK A01 T01721016  RH  028%=      5-min Rain = 0
KAM3 182121Z 33015KT 17/M02 A2958 RMK A01 T01711015  RH  028%=      5-min Rain = 0
KAM3 182122Z 33015KT 17/M01 A2958 RMK A01 T01701014  RH  028%=      5-min Rain = 0
KAM3 182123Z 33015KT 17/M01 A2958 RMK A01 T01691014  RH  029%=      5-min Rain = 0
KAM3 182124Z 32013KT 17/M02 A2958 RMK A01 T01681015  RH  029%=      5-min Rain = 0
KAM3 182125Z 32016KT 17/M01 A2958 RMK A01 T01681014  RH  029%=      5-min Rain = 0
KAM3 182126Z 33014KT 17/M02 A2958 RMK A01 T01681015  RH  029%=      5-min Rain = 0
KAM3 182127Z 32013KT 17/M02 A2958 RMK A01 T01671015  RH  029%=      5-min Rain = 0
KAM3 182128Z 31015KT 17/M02 A2958 RMK A01 T01671015  RH  029%=      5-min Rain = 0
KAM3 182129Z 32014KT 17/M02 A2958 RMK A01 T01671015  RH  029%=      5-min Rain = 0
KAM3 182130Z 32013KT 17/M02 A2959 RMK A01 T01661015  RH  029%=      5-min Rain = 0
KAM3 182131Z 32015KT 17/M02 A2959 RMK A01 T01661015  RH  029%=      5-min Rain = 0
KAM3 182132Z 31014KT 17/M02 A2959 RMK A01 T01661015  RH  029%=      5-min Rain = 0
KAM3 182133Z 32015KT 17/M02 A2959 RMK A01 T01651015  RH  029%=      5-min Rain = 0
KAM3 182134Z 31014KT 17/M01 A2959 RMK A01 T01651014  RH  029%=      5-min Rain = 0
KAM3 182135Z 32013KT 17/M01 A2959 RMK A01 T01651014  RH  030%=      5-min Rain = 0
KAM3 182136Z 32016KT 17/M01 A2959 RMK A01 T01651013  RH  030%=      5-min Rain = 0
KAM3 182137Z 32015KT 16/M01 A2959 RMK A01 T01641013  RH  030%=      5-min Rain = 0
KAM3 182138Z 32013KT 16/M01 A2959 RMK A01 T01641013  RH  030%=      5-min Rain = 0
KAM3 182139Z 33012KT 16/M01 A296 RMK A01 T01641012  RH  030%=      5-min Rain = 0
KAM3 182140Z 33012KT 16/M01 A296 RMK A01 T01631013  RH  030%=      5-min Rain = 0
KAM3 182141Z 33013KT 16/M01 A296 RMK A01 T01631012  RH  030%=      5-min Rain = 0
KAM3 182142Z 33011KT 16/M01 A296 RMK A01 T01631013  RH  030%=      5-min Rain = 0
KAM3 182143Z 33012KT 16/M01 A296 RMK A01 T01631012  RH  030%=      5-min Rain = 0
KAM3 182144Z 33012KT 16/M01 A296 RMK A01 T01621012  RH  030%=      5-min Rain = 0
KAM3 182145Z 33012KT 16/M01 A296 RMK A01 T01621012  RH  030%=      5-min Rain = 0
KAM3 182146Z 34013KT 16/M01 A296 RMK A01 T01621012  RH  030%=      5-min Rain = 0
KAM3 182147Z 34014KT 16/M01 A296 RMK A01 T01611013  RH  030%=      5-min Rain = 0
KAM3 182148Z 35013KT 16/M01 A296 RMK A01 T01611013  RH  030%=      5-min Rain = 0
KAM3 182149Z 35013KT 16/M01 A296 RMK A01 T01611014  RH  030%=      5-min Rain = 0
KAM3 182150Z 35014KT 16/M01 A296 RMK A01 T01601014  RH  030%=      5-min Rain = 0
KAM3 182151Z 35013KT 16/M01 A296 RMK A01 T01601014  RH  030%=      5-min Rain = 0
KAM3 182152Z 35013KT 16/M01 A296 RMK A01 T01601014  RH  030%=      5-min Rain = 0
KAM3 182153Z 35013KT 16/M01 A296 RMK A01 T01601014  RH  030%=      5-min Rain = 0
KAM3 182154Z 36012KT 16/M01 A296 RMK A01 T01601013  RH  031%=      5-min Rain = 0
KAM3 182155Z 35012KT 16/M01 A296 RMK A01 T01601013  RH  031%=      5-min Rain = 0
KAM3 182156Z 35013G18KT 16/M01 A296 RMK A01 T01601013  RH  031%=      5-min Rain = 0
KAM3 182157Z 36012KT 16/M01 A296 RMK A01 T01601013  RH  031%=      5-min Rain = 0
KAM3 182158Z 35013KT 16/M01 A296 RMK A01 T01601013  RH  031%=      5-min Rain = 0
KAM3 182159Z 35015KT 16/M01 A296 RMK A01 T01601013  RH  031%=      5-min Rain = 0
KAM3 182200Z 36017G25KT 16/M01 A2961 RMK A01 T01601013  RH  031%=      5-min Rain = 0
KAM3 182201Z 01025G31KT 16/M01 A2961 RMK A01 T01581008  RH  032%=      5-min Rain = 0
KAM3 182202Z 01025KT 15/M00 A2962 RMK A01 T01481003  RH  036%=      5-min Rain = 0
KAM3 182203Z 01023KT 14/M00 A2962 RMK A01 T01401001  RH  038%=      5-min Rain = 0
KAM3 182204Z 02023KT 14/00 A2962 RMK A01 T01350001  RH  040%=      5-min Rain = 0
KAM3 182205Z 02022G27KT 13/00 A2962 RMK A01 T01320002  RH  041%=      5-min Rain = 0
KAM3 182206Z 01020G25KT 13/00 A2962 RMK A01 T01290002  RH  042%=      5-min Rain = 0
KAM3 182207Z 01023KT 13/00 A2962 RMK A01 T01280003  RH  042%=      5-min Rain = 0
KAM3 182208Z 01021G26KT 13/00 A2963 RMK A01 T01270003  RH  043%=      5-min Rain = 0
KAM3 182209Z 01025G31KT 13/00 A2963 RMK A01 T01260003  RH  043%=      5-min Rain = 0
KAM3 182210Z 01030G36KT 12/00 A2963 RMK A01 T01240001  RH  043%=      5-min Rain = 0
KAM3 182211Z 01027G32KT 12/00 A2963 RMK A01 T01210001  RH  044%=      5-min Rain = 0
KAM3 182212Z 01024G29KT 12/00 A2963 RMK A01 T01180001  RH  044%=      5-min Rain = 0
KAM3 182213Z 00022G29KT 12/00 A2964 RMK A01 T01160001  RH  045%=      5-min Rain = 0
KAM3 182214Z 01025G31KT 12/00 A2964 RMK A01 T01150001  RH  045%=      5-min Rain = 0
KAM3 182215Z 01023G31KT 11/00 A2964 RMK A01 T01140001  RH  046%=      5-min Rain = 0
KAM3 182216Z 01023G29KT 11/00 A2964 RMK A01 T01130001  RH  046%=      5-min Rain = 0
KAM3 182217Z 01023G28KT 11/00 A2964 RMK A01 T01120001  RH  046%=      5-min Rain = 0
KAM3 182218Z 01026G31KT 11/00 A2964 RMK A01 T01110001  RH  047%=      5-min Rain = 0
KAM3 182219Z 01023KT 11/00 A2964 RMK A01 T01090002  RH  047%=      5-min Rain = 0
KAM3 182220Z 01023G28KT 11/00 A2964 RMK A01 T01080002  RH  048%=      5-min Rain = 0
KAM3 182221Z 01018G23KT 11/00 A2964 RMK A01 T01070002  RH  048%=      5-min Rain = 0
KAM3 182222Z 01023KT 11/00 A2964 RMK A01 T01070002  RH  048%=      5-min Rain = 0
KAM3 182223Z 01023G28KT 11/00 A2964 RMK A01 T01050002  RH  049%=      5-min Rain = 0
KAM3 182224Z 02020G25KT 11/00 A2964 RMK A01 T01050002  RH  049%=      5-min Rain = 0
KAM3 182225Z 01020KT 10/00 A2964 RMK A01 T01040001  RH  049%=      5-min Rain = 0
KAM3 182226Z 02019G25KT 10/00 A2965 RMK A01 T01040001  RH  049%=      5-min Rain = 0
KAM3 182227Z 01024G30KT 10/00 A2965 RMK A01 T01030001  RH  049%=      5-min Rain = 0
KAM3 182228Z 01022G27KT 10/00 A2965 RMK A01 T01020000  RH  049%=      5-min Rain = 0
KAM3 182229Z 01024G31KT 10/00 A2965 RMK A01 T010100-0  RH  049%=      5-min Rain = 0
KAM3 182230Z 01028KT 10/00 A2966 RMK A01 T010000-0  RH  050%=      5-min Rain = 0
KAM3 182231Z 00028KT 10/M00 A2966 RMK A01 T00981001  RH  050%=      5-min Rain = 0
KAM3 182232Z 01025KT 10/M00 A2967 RMK A01 T00971001  RH  050%=      5-min Rain = 0
KAM3 182233Z 01024G29KT 10/M00 A2967 RMK A01 T00961003  RH  050%=      5-min Rain = 0
KAM3 182234Z 01028G34KT 10/M00 A2968 RMK A01 T00951004  RH  050%=      5-min Rain = 0
KAM3 182235Z 01022G32KT 09/M01 A2968 RMK A01 T00941006  RH  050%=      5-min Rain = 0
KAM3 182236Z 00020G25KT 09/M01 A2968 RMK A01 T00931007  RH  050%=      5-min Rain = 0
KAM3 182237Z 00020G26KT 09/M01 A2968 RMK A01 T00921007  RH  050%=      5-min Rain = 0
KAM3 182238Z 00022G30KT 09/M01 A2969 RMK A01 T00921006  RH  050%=      5-min Rain = 0
KAM3 182239Z 36024KT 09/M01 A2969 RMK A01 T00911005  RH  051%=      5-min Rain = 0
KAM3 182240Z 36021KT 09/M00 A2969 RMK A01 T00911004  RH  052%=      5-min Rain = 0
KAM3 182241Z 01019G24KT 09/M00 A2969 RMK A01 T00911003  RH  052%=      5-min Rain = 0
KAM3 182242Z 01027KT 09/M00 A2969 RMK A01 T00901004  RH  052%=      5-min Rain = 0
KAM3 182243Z 01019G25KT 09/M00 A2969 RMK A01 T00901004  RH  052%=      5-min Rain = 0
KAM3 182244Z 02022G27KT 09/M00 A2969 RMK A01 T00891004  RH  052%=      5-min Rain = 0
KAM3 182245Z 03021G26KT 09/M00 A2969 RMK A01 T00891003  RH  052%=      5-min Rain = 0
KAM3 182246Z 01027KT 09/M00 A2969 RMK A01 T00891003  RH  053%=      5-min Rain = 0
KAM3 182247Z 02019KT 09/M00 A2969 RMK A01 T00881003  RH  053%=      5-min Rain = 0
KAM3 182248Z 02017KT 09/M00 A2969 RMK A01 T00881002  RH  053%=      5-min Rain = 0
KAM3 182249Z 02017G26KT 09/M00 A2969 RMK A01 T00881002  RH  053%=      5-min Rain = 0
KAM3 182250Z 02017KT 09/M00 A2969 RMK A01 T00881001  RH  054%=      5-min Rain = 0
KAM3 182251Z 03015KT 09/M00 A297 RMK A01 T00871001  RH  054%=      5-min Rain = 0
KAM3 182252Z 04018KT 09/00 A297 RMK A01 T00870000  RH  055%=      5-min Rain = 0
KAM3 182253Z 02019KT 09/00 A297 RMK A01 T00850000  RH  055%=      5-min Rain = 0
KAM3 182254Z 02022KT 08/00 A297 RMK A01 T00840000  RH  055%=      5-min Rain = 0
KAM3 182255Z 01019G24KT 08/00 A297 RMK A01 T00840001  RH  056%=      5-min Rain = 0
KAM3 182256Z 02015KT 08/00 A297 RMK A01 T00830001  RH  056%=      5-min Rain = 0
KAM3 182257Z 04011KT 08/00 A2971 RMK A01 T00830001  RH  056%=      5-min Rain = 0
KAM3 182258Z 03014G19KT 08/00 A2971 RMK A01 T00830002  RH  057%=      5-min Rain = 0
KAM3 182259Z 03014KT 08/00 A2971 RMK A01 T00820002  RH  057%=      5-min Rain = 0
KAM3 182300Z 04017G22KT 08/00 A2971 RMK A01 T00820002  RH  057%=      5-min Rain = 0
KAM3 182301Z 03022KT 08/00 A2972 RMK A01 T00810001  RH  057%=      5-min Rain = 0
KAM3 182302Z 03019KT 08/M00 A2972 RMK A01 T00801001  RH  057%=      5-min Rain = 0
KAM3 182303Z 02020G25KT 08/M00 A2972 RMK A01 T00781002  RH  057%=      5-min Rain = 0
KAM3 182304Z 03019G24KT 08/M00 A2972 RMK A01 T00781003  RH  057%=      5-min Rain = 0
KAM3 182305Z 02016G21KT 08/M00 A2972 RMK A01 T00771003  RH  057%=      5-min Rain = 0
KAM3 182306Z 04012KT 08/M00 A2973 RMK A01 T00771002  RH  057%=      5-min Rain = 0
KAM3 182307Z 03015KT 08/M00 A2973 RMK A01 T00771002  RH  058%=      5-min Rain = 0
KAM3 182308Z 04011KT 08/00 A2973 RMK A01 T007700-0  RH  058%=      5-min Rain = 0
KAM3 182309Z 04012KT 08/M00 A2973 RMK A01 T00761001  RH  058%=      5-min Rain = 0
KAM3 182310Z 02011KT 08/M00 A2974 RMK A01 T00751001  RH  058%=      5-min Rain = 0
KAM3 182311Z 02009KT 08/M00 A2974 RMK A01 T00751001  RH  058%=      5-min Rain = 0
KAM3 182312Z 03011G16KT 07/M00 A2974 RMK A01 T00741002  RH  059%=      5-min Rain = 0
KAM3 182313Z 03011KT 07/M00 A2975 RMK A01 T00731002  RH  059%=      5-min Rain = 0
KAM3 182314Z 03011KT 07/M00 A2975 RMK A01 T00721002  RH  059%=      5-min Rain = 0
KAM3 182315Z 04010KT 07/M00 A2975 RMK A01 T00711002  RH  060%=      5-min Rain = 0
KAM3 182316Z 04013KT 07/M00 A2975 RMK A01 T00711002  RH  060%=      5-min Rain = 0
KAM3 182317Z 03019KT 07/M00 A2975 RMK A01 T00701002  RH  060%=      5-min Rain = 0
KAM3 182318Z 03015G20KT 07/M00 A2975 RMK A01 T00691002  RH  061%=      5-min Rain = 0
KAM3 182319Z 04014KT 07/M00 A2975 RMK A01 T00681002  RH  061%=      5-min Rain = 0
KAM3 182320Z 03015KT 07/M00 A2976 RMK A01 T00671002  RH  061%=      5-min Rain = 0
KAM3 182321Z 03016KT 07/M00 A2976 RMK A01 T00671002  RH  061%=      5-min Rain = 0
KAM3 182322Z 02016KT 07/M00 A2976 RMK A01 T00661002  RH  062%=      5-min Rain = 0
KAM3 182323Z 02015KT 07/M00 A2976 RMK A01 T00661002  RH  062%=      5-min Rain = 0
KAM3 182324Z 01016KT 07/M00 A2976 RMK A01 T00651003  RH  062%=      5-min Rain = 0
KAM3 182325Z 00020G27KT 07/M00 A2976 RMK A01 T00651002  RH  062%=      5-min Rain = 0
KAM3 182326Z 00018G23KT 06/M00 A2976 RMK A01 T00641003  RH  062%=      5-min Rain = 0
KAM3 182327Z 01022KT 06/M00 A2977 RMK A01 T00641003  RH  062%=      5-min Rain = 0
KAM3 182328Z 00023G28KT 06/M01 A2977 RMK A01 T00621005  RH  062%=      5-min Rain = 0
KAM3 182329Z 01022KT 06/M01 A2977 RMK A01 T00611005  RH  063%=      5-min Rain = 0
KAM3 182330Z 01024KT 06/M01 A2977 RMK A01 T00601005  RH  063%=      5-min Rain = 0
KAM3 182331Z 01024KT 06/M01 A2977 RMK A01 T00591005  RH  063%=      5-min Rain = 0
KAM3 182332Z 01023KT 06/M01 A2977 RMK A01 T00581005  RH  064%=      5-min Rain = 0
KAM3 182333Z 36021G26KT 06/M01 A2977 RMK A01 T00571005  RH  064%=      5-min Rain = 0
KAM3 182334Z 00021G27KT 06/M01 A2977 RMK A01 T00571005  RH  064%=      5-min Rain = 0
KAM3 182335Z 01021G27KT 06/M01 A2977 RMK A01 T00561005  RH  065%=      5-min Rain = 0
KAM3 182336Z 01025G31KT 06/M01 A2977 RMK A01 T00561005  RH  065%=      5-min Rain = 0
KAM3 182337Z 01029G34KT 06/M01 A2977 RMK A01 T00551005  RH  065%=      5-min Rain = 0
KAM3 182338Z 01025KT 05/M01 A2978 RMK A01 T00541005  RH  066%=      5-min Rain = 0
KAM3 182339Z 01025G32KT 05/M01 A2978 RMK A01 T00541005  RH  066%=      5-min Rain = 0
KAM3 182340Z 02025G30KT 05/M01 A2978 RMK A01 T00531005  RH  066%=      5-min Rain = 0
KAM3 182341Z 01021KT 05/M01 A2978 RMK A01 T00531005  RH  066%=      5-min Rain = 0
KAM3 182342Z 01021G28KT 05/M01 A2978 RMK A01 T00521005  RH  066%=      5-min Rain = 0
KAM3 182343Z 02019G24KT 05/M01 A2978 RMK A01 T00521005  RH  066%=      5-min Rain = 0
KAM3 182344Z 02020G27KT 05/M01 A2978 RMK A01 T00521005  RH  066%=      5-min Rain = 0
KAM3 182345Z 02026KT 05/M01 A2978 RMK A01 T00511006  RH  067%=      5-min Rain = 0
KAM3 182346Z 02025KT 05/M01 A2978 RMK A01 T00511005  RH  067%=      5-min Rain = 0
KAM3 182347Z 01025KT 05/M01 A2978 RMK A01 T00501005  RH  067%=      5-min Rain = 0
KAM3 182348Z 01021KT 05/M01 A2978 RMK A01 T00501005  RH  068%=      5-min Rain = 0
KAM3 182349Z 01024KT 05/M01 A2978 RMK A01 T00501005  RH  068%=      5-min Rain = 0
KAM3 182350Z 36026G31KT 05/M01 A2978 RMK A01 T00501005  RH  068%=      5-min Rain = 0
KAM3 182351Z 01026G31KT 05/M01 A2979 RMK A01 T00491005  RH  068%=      5-min Rain = 0
KAM3 182352Z 01026KT 05/M01 A2979 RMK A01 T00491005  RH  068%=      5-min Rain = 0
KAM3 182353Z 01025G31KT 05/M01 A2978 RMK A01 T00481005  RH  069%=      5-min Rain = 0
KAM3 182354Z 01027G32KT 05/M00 A2979 RMK A01 T00481004  RH  069%=      5-min Rain = 0
KAM3 182355Z 01024G29KT 05/M00 A2979 RMK A01 T00471004  RH  069%=      5-min Rain = 0
KAM3 182356Z 01025KT 05/M01 A2979 RMK A01 T00471005  RH  069%=      5-min Rain = 0
KAM3 182357Z 01025KT 05/M01 A2979 RMK A01 T00471005  RH  069%=      5-min Rain = 0
KAM3 182358Z 01021G27KT 05/M01 A2979 RMK A01 T00461005  RH  069%=      5-min Rain = 0
KAM3 182359Z 01022KT 05/M01 A298 RMK A01 T00461005  RH  070%=      5-min Rain = 0
KAM3 190000Z 01018KT 05/M01 A298 RMK A01 T00461005  RH  070%=      5-min Rain = 0
KAM3 190001Z 36022KT 05/M01 A298 RMK A01 T00461005  RH  070%=      5-min Rain = 0
KAM3 190002Z 36020G27KT 05/M01 A298 RMK A01 T00451005  RH  070%=      5-min Rain = 0
KAM3 190003Z 36021G26KT 04/M01 A298 RMK A01 T00441006  RH  070%=      5-min Rain = 0
KAM3 190004Z 00023G30KT 04/M01 A2981 RMK A01 T00441006  RH  070%=      5-min Rain = 0
KAM3 190005Z 00022KT 04/M01 A2981 RMK A01 T00441006  RH  070%=      5-min Rain = 0
KAM3 190006Z 36019KT 04/M01 A298 RMK A01 T00431006  RH  071%=      5-min Rain = 0
KAM3 190007Z 36025KT 04/M01 A2981 RMK A01 T00421006  RH  071%=      5-min Rain = 0
KAM3 190008Z 00023KT 04/M01 A2981 RMK A01 T00421006  RH  071%=      5-min Rain = 0
KAM3 190009Z 01020KT 04/M01 A2981 RMK A01 T00421006  RH  071%=      5-min Rain = 0
KAM3 190010Z 02016G21KT 04/M01 A2981 RMK A01 T00411006  RH  071%=      5-min Rain = 0
KAM3 190011Z 01019KT 04/M01 A2981 RMK A01 T00411007  RH  071%=      5-min Rain = 0
KAM3 190012Z 01024G29KT 04/M01 A2981 RMK A01 T00401007  RH  071%=      5-min Rain = 0
KAM3 190013Z 36026G32KT 04/M01 A2981 RMK A01 T00401007  RH  072%=      5-min Rain = 0
KAM3 190014Z 00024G32KT 04/M01 A2981 RMK A01 T00391007  RH  072%=      5-min Rain = 0
KAM3 190015Z 00025G30KT 04/M01 A2981 RMK A01 T00391007  RH  072%=      5-min Rain = 0
KAM3 190016Z 01022G29KT 04/M01 A2981 RMK A01 T00381007  RH  072%=      5-min Rain = 0
KAM3 190017Z 01019G25KT 04/M01 A2982 RMK A01 T00381007  RH  073%=      5-min Rain = 0
KAM3 190018Z 00017KT 04/M01 A2982 RMK A01 T00371007  RH  073%=      5-min Rain = 0
KAM3 190019Z 01019G25KT 04/M01 A2982 RMK A01 T00381007  RH  073%=      5-min Rain = 0
KAM3 190020Z 01022KT 04/M01 A2982 RMK A01 T00371007  RH  073%=      5-min Rain = 0
KAM3 190021Z 00018KT 04/M01 A2982 RMK A01 T00371007  RH  073%=      5-min Rain = 0
KAM3 190022Z 00021KT 04/M01 A2982 RMK A01 T00361007  RH  073%=      5-min Rain = 0
KAM3 190023Z 00019G25KT 04/M01 A2982 RMK A01 T00351007  RH  074%=      5-min Rain = 0
KAM3 190024Z 35027G34KT 04/M01 A2982 RMK A01 T00351007  RH  074%=      5-min Rain = 0
KAM3 190025Z 00026G33KT 03/M01 A2982 RMK A01 T00341007  RH  075%=      5-min Rain = 0
KAM3 190026Z 00027KT 03/M01 A2983 RMK A01 T00331007  RH  075%=      5-min Rain = 0
KAM3 190027Z 00024KT 03/M01 A2983 RMK A01 T00331006  RH  075%=      5-min Rain = 0
KAM3 190028Z 01023G28KT 03/M01 A2983 RMK A01 T00331006  RH  076%=      5-min Rain = 0
KAM3 190029Z 00026G31KT 03/M01 A2983 RMK A01 T00331006  RH  076%=      5-min Rain = 0
KAM3 190030Z 01023KT 03/M01 A2983 RMK A01 T00331006  RH  076%=      5-min Rain = 0
KAM3 190031Z 36023G28KT 03/M01 A2983 RMK A01 T00321007  RH  076%=      5-min Rain = 0
KAM3 190032Z 00023G28KT 03/M01 A2984 RMK A01 T00321007  RH  076%=      5-min Rain = 0
KAM3 190033Z 00022KT 03/M01 A2984 RMK A01 T00321007  RH  076%=      5-min Rain = 0
KAM3 190034Z 00021KT 03/M01 A2984 RMK A01 T00321007  RH  075%=      5-min Rain = 0
KAM3 190035Z 36021G26KT 03/M01 A2984 RMK A01 T00321008  RH  075%=      5-min Rain = 0
KAM3 190036Z 36026G31KT 03/M01 A2984 RMK A01 T00321008  RH  075%=      5-min Rain = 0
KAM3 190037Z 00023G29KT 03/M01 A2984 RMK A01 T00311008  RH  075%=      5-min Rain = 0
KAM3 190038Z 01020G27KT 03/M01 A2985 RMK A01 T00311008  RH  075%=      5-min Rain = 0
KAM3 190039Z 01019KT 03/M01 A2985 RMK A01 T00311008  RH  076%=      5-min Rain = 0
KAM3 190040Z 00023KT 03/M01 A2985 RMK A01 T00311009  RH  075%=      5-min Rain = 0
KAM3 190041Z 01022G31KT 03/M01 A2985 RMK A01 T00301010  RH  075%=      5-min Rain = 0
KAM3 190042Z 01019G25KT 03/M01 A2985 RMK A01 T00301009  RH  075%=      5-min Rain = 0
KAM3 190043Z 01019G24KT 03/M01 A2985 RMK A01 T00301009  RH  075%=      5-min Rain = 0
KAM3 190044Z 00022G27KT 03/M01 A2985 RMK A01 T00301010  RH  075%=      5-min Rain = 0
KAM3 190045Z 01023G33KT 03/M01 A2985 RMK A01 T00291011  RH  075%=      5-min Rain = 0
KAM3 190046Z 36025G31KT 03/M01 A2985 RMK A01 T00291011  RH  075%=      5-min Rain = 0
KAM3 190047Z 36030G37KT 03/M01 A2986 RMK A01 T00291011  RH  075%=      5-min Rain = 0
KAM3 190048Z 36030G35KT 03/M01 A2986 RMK A01 T00281011  RH  075%=      5-min Rain = 0
KAM3 190049Z 35026KT 03/M01 A2986 RMK A01 T00281011  RH  075%=      5-min Rain = 0
KAM3 190050Z 35022G27KT 03/M01 A2986 RMK A01 T00281011  RH  076%=      5-min Rain = 0
KAM3 190051Z 35023G28KT 03/M01 A2986 RMK A01 T00271011  RH  076%=      5-min Rain = 0
KAM3 190052Z 00021KT 03/M01 A2987 RMK A01 T00271011  RH  076%=      5-min Rain = 0
KAM3 190053Z 35017KT 03/M01 A2987 RMK A01 T00271011  RH  076%=      5-min Rain = 0
KAM3 190054Z 00019G24KT 03/M01 A2987 RMK A01 T00271011  RH  076%=      5-min Rain = 0
KAM3 190055Z 01020KT 03/M01 A2987 RMK A01 T00271011  RH  076%=      5-min Rain = 0
KAM3 190056Z 35020G28KT 03/M01 A2987 RMK A01 T00271011  RH  076%=      5-min Rain = 0
KAM3 190057Z 35025G31KT 03/M01 A2987 RMK A01 T00271011  RH  076%=      5-min Rain = 0
KAM3 190058Z 35020G26KT 03/M01 A2987 RMK A01 T00261012  RH  076%=      5-min Rain = 0
KAM3 190059Z 35018KT 03/M01 A2987 RMK A01 T00261011  RH  076%=      5-min Rain = 0
KAM3 190100Z 00023G28KT 03/M01 A2988 RMK A01 T00251012  RH  077%=      5-min Rain = 0
KAM3 190101Z 00021KT 03/M01 A2988 RMK A01 T00261011  RH  077%=      5-min Rain = 0
KAM3 190102Z 35021G26KT 03/M01 A2988 RMK A01 T00251011  RH  077%=      5-min Rain = 0
KAM3 190103Z 00022KT 03/M01 A2988 RMK A01 T00251010  RH  077%=      5-min Rain = 0
KAM3 190104Z 00016KT 02/M01 A2988 RMK A01 T00241010  RH  078%=      5-min Rain = 0
KAM3 190105Z 01014KT 02/M01 A2988 RMK A01 T00241010  RH  078%=      5-min Rain = 0
KAM3 190106Z 01018KT 02/M01 A2988 RMK A01 T00241010  RH  078%=      5-min Rain = 0
KAM3 190107Z 00017G23KT 02/M01 A2989 RMK A01 T00241010  RH  078%=      5-min Rain = 0
KAM3 190108Z 01017G22KT 02/M01 A2989 RMK A01 T00231011  RH  078%=      5-min Rain = 0
KAM3 190109Z 00018G23KT 02/M01 A2989 RMK A01 T00231011  RH  078%=      5-min Rain = 0
KAM3 190110Z 01015KT 02/M01 A2989 RMK A01 T00231011  RH  078%=      5-min Rain = 0
KAM3 190111Z 01018G24KT 02/M01 A2989 RMK A01 T00231012  RH  078%=      5-min Rain = 0
KAM3 190112Z 01019KT 02/M01 A2989 RMK A01 T00231013  RH  077%=      5-min Rain = 0
KAM3 190113Z 01023KT 02/M01 A2989 RMK A01 T00221014  RH  077%=      5-min Rain = 0
KAM3 190114Z 01023KT 02/M01 A299 RMK A01 T00221014  RH  077%=      5-min Rain = 0
KAM3 190115Z 01019G25KT 02/M02 A299 RMK A01 T00211015  RH  077%=      5-min Rain = 0
KAM3 190116Z 01022KT 02/M02 A299 RMK A01 T00211015  RH  077%=      5-min Rain = 0
KAM3 190117Z 00018G24KT 02/M02 A299 RMK A01 T00211015  RH  077%=      5-min Rain = 0
KAM3 190118Z 36020KT 02/M02 A299 RMK A01 T00201015  RH  078%=      5-min Rain = 0
KAM3 190119Z 00018G23KT 02/M02 A299 RMK A01 T00201015  RH  078%=      5-min Rain = 0
KAM3 190120Z 00021KT 02/M01 A2991 RMK A01 T00201014  RH  078%=      5-min Rain = 0
KAM3 190121Z 36015KT 02/M01 A2991 RMK A01 T00201014  RH  078%=      5-min Rain = 0
KAM3 190122Z 00016KT 02/M01 A2991 RMK A01 T00191014  RH  078%=      5-min Rain = 0
KAM3 190123Z 01014KT 02/M01 A2991 RMK A01 T00191014  RH  079%=      5-min Rain = 0
KAM3 190124Z 36011KT 02/M01 A2992 RMK A01 T00191014  RH  079%=      5-min Rain = 0
KAM3 190125Z 36009KT 02/M01 A2992 RMK A01 T00191013  RH  079%=      5-min Rain = 0
KAM3 190126Z 01016G21KT 02/M01 A2992 RMK A01 T00191013  RH  079%=      5-min Rain = 0
KAM3 190127Z 36013KT 02/M01 A2992 RMK A01 T00191014  RH  079%=      5-min Rain = 0
KAM3 190128Z 00015KT 02/M01 A2992 RMK A01 T00191013  RH  079%=      5-min Rain = 0
KAM3 190129Z 00015KT 02/M01 A2992 RMK A01 T00191013  RH  080%=      5-min Rain = 0
KAM3 190130Z 36013KT 02/M01 A2992 RMK A01 T00181013  RH  080%=      5-min Rain = 0
KAM3 190131Z 01013KT 02/M01 A2992 RMK A01 T00181012  RH  081%=      5-min Rain = 0
KAM3 190132Z 36012KT 02/M01 A2993 RMK A01 T00171012  RH  081%=      5-min Rain = 0
KAM3 190133Z 00013KT 02/M01 A2993 RMK A01 T00171012  RH  081%=      5-min Rain = 0
KAM3 190134Z 35010KT 02/M01 A2993 RMK A01 T00171011  RH  081%=      5-min Rain = 0
KAM3 190135Z 35010KT 02/M01 A2993 RMK A01 T00171011  RH  081%=      5-min Rain = 0
KAM3 190136Z 34014KT 02/M01 A2993 RMK A01 T00171011  RH  082%=      5-min Rain = 0
KAM3 190137Z 36015KT 02/M01 A2993 RMK A01 T00171011  RH  082%=      5-min Rain = 0
KAM3 190138Z 34013KT 02/M01 A2993 RMK A01 T00171010  RH  082%=      5-min Rain = 0
KAM3 190139Z 35012KT 02/M01 A2993 RMK A01 T00171010  RH  083%=      5-min Rain = 0
KAM3 190140Z 36012KT 02/M01 A2993 RMK A01 T00171009  RH  083%=      5-min Rain = 0
KAM3 190141Z 35012KT 02/M01 A2993 RMK A01 T00171009  RH  083%=      5-min Rain = 0
KAM3 190142Z 34013KT 02/M01 A2993 RMK A01 T00171009  RH  083%=      5-min Rain = 0
KAM3 190143Z 00015KT 02/M01 A2993 RMK A01 T00161009  RH  083%=      5-min Rain = 0
KAM3 190144Z 35017KT 02/M01 A2993 RMK A01 T00171008  RH  083%=      5-min Rain = 0
KAM3 190145Z 35017KT 02/M01 A2993 RMK A01 T00161009  RH  084%=      5-min Rain = 0
KAM3 190146Z 35015KT 02/M01 A2993 RMK A01 T00161008  RH  084%=      5-min Rain = 0
KAM3 190147Z 35012KT 02/M01 A2994 RMK A01 T00161008  RH  084%=      5-min Rain = 0
KAM3 190148Z 00016KT 02/M01 A2994 RMK A01 T00161008  RH  084%=      5-min Rain = 0
KAM3 190149Z 36017KT 02/M01 A2994 RMK A01 T00161008  RH  084%=      5-min Rain = 0
KAM3 190150Z 00018KT 02/M01 A2994 RMK A01 T00151008  RH  084%=      5-min Rain = 0
KAM3 190151Z 35017G24KT 02/M01 A2994 RMK A01 T00151008  RH  085%=      5-min Rain = 0
KAM3 190152Z 35021KT 02/M01 A2994 RMK A01 T00151008  RH  085%=      5-min Rain = 0
KAM3 190153Z 35021KT 01/M01 A2994 RMK A01 T00141008  RH  085%=      5-min Rain = 0
KAM3 190154Z 36018KT 01/M01 A2995 RMK A01 T00141007  RH  086%=      5-min Rain = 0
KAM3 190155Z 36017KT 01/M01 A2995 RMK A01 T00131006  RH  087%=      5-min Rain = 0
KAM3 190156Z 35016KT 01/M01 A2995 RMK A01 T00131005  RH  088%=      5-min Rain = 0
KAM3 190157Z 35017KT 01/M00 A2995 RMK A01 T00121004  RH  089%=      5-min Rain = 0
KAM3 190158Z 35020G26KT 01/M00 A2995 RMK A01 T00111003  RH  090%=      5-min Rain = 0
KAM3 190159Z 00020KT 01/M00 A2995 RMK A01 T00111002  RH  091%=      5-min Rain = 0
KAM3 190200Z 01015KT 01/M00 A2995 RMK A01 T00101001  RH  092%=      5-min Rain = 0
KAM3 190201Z 00017KT 01/00 A2995 RMK A01 T00090000  RH  094%=      5-min Rain = 0
KAM3 190202Z 00016KT 01/00 A2995 RMK A01 T00090002  RH  095%=      5-min Rain = 0
KAM3 190203Z 36019G25KT 01/00 A2995 RMK A01 T00080003  RH  096%=      5-min Rain = 0
KAM3 190204Z 36025G31KT 01/00 A2995 RMK A01 T00080003  RH  097%=      5-min Rain = 0
KAM3 190205Z 36022G27KT 01/00 A2995 RMK A01 T00080002  RH  096%=      5-min Rain = 0
KAM3 190206Z 00020G26KT 01/00 A2996 RMK A01 T00080001  RH  095%=      5-min Rain = 0
KAM3 190207Z 36017KT 01/00 A2996 RMK A01 T000800-0  RH  094%=      5-min Rain = 0
KAM3 190208Z 35018KT 01/M00 A2996 RMK A01 T00081001  RH  094%=      5-min Rain = 0
KAM3 190209Z 34018KT 01/M00 A2996 RMK A01 T00081001  RH  093%=      5-min Rain = 0
KAM3 190210Z 35018KT 01/M00 A2996 RMK A01 T00081002  RH  093%=      5-min Rain = 0
KAM3 190211Z 34015KT 01/M00 A2996 RMK A01 T00081002  RH  093%=      5-min Rain = 0
KAM3 190212Z 36014KT 01/M00 A2996 RMK A01 T00081003  RH  092%=      5-min Rain = 0
KAM3 190213Z 36015KT 01/M00 A2996 RMK A01 T00081003  RH  092%=      5-min Rain = 0
KAM3 190214Z 35017KT 01/M00 A2996 RMK A01 T00081003  RH  092%=      5-min Rain = 0
KAM3 190215Z 35018G23KT 01/M00 A2996 RMK A01 T00081004  RH  092%=      5-min Rain = 0
KAM3 190216Z 35017KT 01/M01 A2996 RMK A01 T00081006  RH  090%=      5-min Rain = 0
KAM3 190217Z 35018KT 01/M01 A2996 RMK A01 T00081007  RH  090%=      5-min Rain = 0
KAM3 190218Z 34023G30KT 01/M01 A2996 RMK A01 T00091009  RH  088%=      5-min Rain = 0
KAM3 190219Z 34022G30KT 01/M01 A2996 RMK A01 T00091011  RH  087%=      5-min Rain = 0
KAM3 190220Z 35021KT 01/M01 A2996 RMK A01 T00091010  RH  087%=      5-min Rain = 0
KAM3 190221Z 35022KT 01/M01 A2996 RMK A01 T00091010  RH  087%=      5-min Rain = 0
KAM3 190222Z 35019KT 01/M01 A2996 RMK A01 T00091010  RH  087%=      5-min Rain = 0
KAM3 190223Z 35020G29KT 01/M01 A2996 RMK A01 T00091011  RH  087%=      5-min Rain = 0
KAM3 190224Z 34021G28KT 01/M01 A2996 RMK A01 T00091011  RH  087%=      5-min Rain = 0
KAM3 190225Z 34023G29KT 01/M01 A2996 RMK A01 T00091012  RH  086%=      5-min Rain = 0
KAM3 190226Z 35021G27KT 01/M01 A2996 RMK A01 T00091011  RH  086%=      5-min Rain = 0
KAM3 190227Z 35021KT 01/M01 A2997 RMK A01 T00091011  RH  087%=      5-min Rain = 0
KAM3 190228Z 35020KT 01/M01 A2997 RMK A01 T00091011  RH  087%=      5-min Rain = 0
KAM3 190229Z 34021G26KT 01/M01 A2997 RMK A01 T00081012  RH  086%=      5-min Rain = 0
KAM3 190230Z 35018G23KT 01/M01 A2997 RMK A01 T00081012  RH  086%=      5-min Rain = 0
KAM3 190231Z 35022G27KT 01/M01 A2997 RMK A01 T00081012  RH  086%=      5-min Rain = 0
KAM3 190232Z 35021G26KT 01/M01 A2997 RMK A01 T00081013  RH  086%=      5-min Rain = 0
KAM3 190233Z 36017G23KT 01/M01 A2997 RMK A01 T00081013  RH  086%=      5-min Rain = 0
KAM3 190234Z 35017KT 01/M01 A2997 RMK A01 T00081012  RH  086%=      5-min Rain = 0
KAM3 190235Z 35018G23KT 01/M01 A2997 RMK A01 T00081012  RH  086%=      5-min Rain = 0
KAM3 190236Z 35018G23KT 01/M01 A2997 RMK A01 T00081012  RH  087%=      5-min Rain = 0
KAM3 190237Z 36018KT 01/M01 A2997 RMK A01 T00081012  RH  086%=      5-min Rain = 0
KAM3 190238Z 00015G20KT 01/M01 A2997 RMK A01 T00081012  RH  087%=      5-min Rain = 0
KAM3 190239Z 34013G18KT 01/M01 A2997 RMK A01 T00081011  RH  087%=      5-min Rain = 0
KAM3 190240Z 35014KT 01/M01 A2997 RMK A01 T00081011  RH  087%=      5-min Rain = 0
KAM3 190241Z 35017G23KT 01/M01 A2997 RMK A01 T00081011  RH  087%=      5-min Rain = 0
KAM3 190242Z 34018KT 01/M01 A2997 RMK A01 T00071011  RH  087%=      5-min Rain = 0
KAM3 190243Z 35020G26KT 01/M01 A2997 RMK A01 T00071012  RH  087%=      5-min Rain = 0
KAM3 190244Z 35019KT 01/M01 A2998 RMK A01 T00071011  RH  087%=      5-min Rain = 0
KAM3 190245Z 00016KT 01/M01 A2998 RMK A01 T00071011  RH  088%=      5-min Rain = 0
KAM3 190246Z 35010KT 01/M01 A2998 RMK A01 T00071010  RH  089%=      5-min Rain = 0
KAM3 190247Z 36009KT 01/M01 A2998 RMK A01 T00061009  RH  090%=      5-min Rain = 0
KAM3 190248Z 35013KT 01/M01 A2998 RMK A01 T00061008  RH  091%=      5-min Rain = 0
KAM3 190249Z 35010KT 01/M01 A2998 RMK A01 T00061007  RH  091%=      5-min Rain = 0
KAM3 190250Z 35011KT 01/M01 A2998 RMK A01 T00061007  RH  091%=      5-min Rain = 0
KAM3 190251Z 35011KT 01/M01 A2998 RMK A01 T00061007  RH  091%=      5-min Rain = 0
KAM3 190252Z 36013KT 01/M01 A2998 RMK A01 T00061007  RH  091%=      5-min Rain = 0
KAM3 190253Z 36017KT 01/M01 A2998 RMK A01 T00061008  RH  091%=      5-min Rain = 0
KAM3 190254Z 35013KT 01/M01 A2998 RMK A01 T00061008  RH  090%=      5-min Rain = 0
KAM3 190255Z 35010KT 01/M01 A2998 RMK A01 T00061009  RH  090%=      5-min Rain = 0
KAM3 190256Z 01010KT 01/M01 A2998 RMK A01 T00061008  RH  091%=      5-min Rain = 0
KAM3 190257Z 01007KT 01/M01 A2998 RMK A01 T00061007  RH  091%=      5-min Rain = 0
KAM3 190258Z 00012KT 01/M01 A2998 RMK A01 T00061007  RH  091%=      5-min Rain = 0
KAM3 190259Z 35014KT 01/M01 A2998 RMK A01 T00061007  RH  091%=      5-min Rain = 0
KAM3 190300Z 34020KT 01/M01 A2998 RMK A01 T00061008  RH  091%=      5-min Rain = 0
KAM3 190301Z 35018G23KT 01/M01 A2999 RMK A01 T00061009  RH  090%=      5-min Rain = 0
KAM3 190302Z 35022G27KT 01/M01 A2998 RMK A01 T00061010  RH  089%=      5-min Rain = 0
KAM3 190303Z 35018G24KT 01/M01 A2999 RMK A01 T00071011  RH  088%=      5-min Rain = 0
KAM3 190304Z 35016KT 01/M01 A2999 RMK A01 T00071011  RH  088%=      5-min Rain = 0
KAM3 190305Z 36019KT 01/M01 A2999 RMK A01 T00071010  RH  088%=      5-min Rain = 0
KAM3 190306Z 35018KT 01/M01 A2999 RMK A01 T00071010  RH  089%=      5-min Rain = 0
KAM3 190307Z 00019KT 01/M01 A2999 RMK A01 T00061010  RH  089%=      5-min Rain = 0
KAM3 190308Z 01020KT 01/M01 A2999 RMK A01 T00061011  RH  088%=      5-min Rain = 0
KAM3 190309Z 36023KT 01/M01 A2999 RMK A01 T00061012  RH  088%=      5-min Rain = 0
KAM3 190310Z 36023G30KT 01/M01 A2999 RMK A01 T00061012  RH  088%=      5-min Rain = 0
KAM3 190311Z 36021G32KT 01/M01 A2999 RMK A01 T00051012  RH  088%=      5-min Rain = 0
KAM3 190312Z 35025G30KT 01/M01 A2999 RMK A01 T00051011  RH  089%=      5-min Rain = 0
KAM3 190313Z 35023KT 00/M01 A2999 RMK A01 T00041011  RH  089%=      5-min Rain = 0
KAM3 190314Z 36025G33KT 00/M01 A30 RMK A01 T00041011  RH  090%=      5-min Rain = 0
KAM3 190315Z 00026G31KT 00/M01 A30 RMK A01 T00031010  RH  090%=      5-min Rain = 0
KAM3 190316Z 00027G34KT 00/M01 A30 RMK A01 T00031010  RH  092%=      5-min Rain = 0
KAM3 190317Z 36020G28KT 00/M01 A30 RMK A01 T00021009  RH  092%=      5-min Rain = 0
KAM3 190318Z 36026G33KT 00/M01 A30 RMK A01 T00021008  RH  093%=      5-min Rain = 0
KAM3 190319Z 36023G28KT 00/M01 A30 RMK A01 T00011007  RH  094%=      5-min Rain = 0
KAM3 190320Z 36021G26KT 00/M01 A30 RMK A01 T00011007  RH  094%=      5-min Rain = 0
KAM3 190321Z 35018KT 00/M01 A30 RMK A01 T00011006  RH  095%=      5-min Rain = 0
KAM3 190322Z 35020G25KT 00/M01 A30 RMK A01 T00011006  RH  095%=      5-min Rain = 0
KAM3 190323Z 35025G30KT 00/01 A30 RMK A01 T000000-6  RH  096%=      5-min Rain = 0
KAM3 190324Z 35023KT 00/M01 A30 RMK A01 T00011006  RH  095%=      5-min Rain = 0
KAM3 190325Z 36021KT 00/01 A30 RMK A01 T000000-6  RH  095%=      5-min Rain = 0
KAM3 190326Z 35017KT 00/01 A30 RMK A01 T000000-6  RH  096%=      5-min Rain = 0
KAM3 190327Z 36023KT 00/01 A3001 RMK A01 T000000-5  RH  096%=      5-min Rain = 0
KAM3 190328Z 36021KT 00/01 A3001 RMK A01 T00-000-5  RH  096%=      5-min Rain = 0
KAM3 190329Z 36018G23KT 00/01 A3001 RMK A01 T000000-5  RH  097%=      5-min Rain = 0
KAM3 190330Z 36018KT 00/00 A3001 RMK A01 T00-000-4  RH  097%=      5-min Rain = 0
KAM3 190331Z 35016G24KT 00/00 A3001 RMK A01 T00-000-3  RH  098%=      5-min Rain = 0
KAM3 190332Z 35022KT 00/00 A3001 RMK A01 T00-000-2  RH  099%=      5-min Rain = 0
KAM3 190333Z 35018G24KT M00/M00 A3001 RMK A01 T10011002  RH  099%=      5-min Rain = 0
KAM3 190334Z 36021KT M00/M00 A3001 RMK A01 T10011001  RH  100%=      5-min Rain = 0
KAM3 190335Z 35021G26KT M00/M00 A3001 RMK A01 T10011001  RH  100%=      5-min Rain = 0
KAM3 190336Z 36018KT M00/M00 A3001 RMK A01 T10011001  RH  100%=      5-min Rain = 0
KAM3 190337Z 35014KT M00/M00 A3002 RMK A01 T10011001  RH  100%=      5-min Rain = 0
KAM3 190338Z 35014KT M00/M00 A3002 RMK A01 T10021002  RH  100%=      5-min Rain = 0
KAM3 190339Z 35019KT M00/M00 A3002 RMK A01 T10021002  RH  100%=      5-min Rain = 0
KAM3 190340Z 35016KT M00/M00 A3002 RMK A01 T10021002  RH  100%=      5-min Rain = 0
KAM3 190341Z 35014KT M00/M00 A3002 RMK A01 T10021002  RH  100%=      5-min Rain = 0
KAM3 190342Z 00015KT M00/M00 A3002 RMK A01 T10021002  RH  100%=      5-min Rain = 0
KAM3 190343Z 36015KT M00/M00 A3002 RMK A01 T10021002  RH  100%=      5-min Rain = 0
KAM3 190344Z 35017KT M00/M00 A3002 RMK A01 T10021002  RH  100%=      5-min Rain = 0
KAM3 190345Z 00015KT M00/M00 A3002 RMK A01 T10021002  RH  100%=      5-min Rain = 0
KAM3 190346Z 36016KT M00/M00 A3002 RMK A01 T10021002  RH  100%=      5-min Rain = 0
KAM3 190347Z 36017G23KT M00/M00 A3002 RMK A01 T10021002  RH  100%=      5-min Rain = 0
KAM3 190348Z 36022KT M00/M00 A3002 RMK A01 T10021002  RH  100%=      5-min Rain = 0
KAM3 190349Z 35018G23KT M00/M00 A3003 RMK A01 T10011001  RH  100%=      5-min Rain = 0
KAM3 190350Z 01018G24KT M00/M00 A3003 RMK A01 T10011001  RH  099%=      5-min Rain = 0
KAM3 190351Z 36023KT 00/00 A3003 RMK A01 T00-000-3  RH  098%=      5-min Rain = 0
KAM3 190352Z 36021G26KT 00/01 A3003 RMK A01 T000000-5  RH  097%=      5-min Rain = 0
KAM3 190353Z 00025G31KT 00/01 A3003 RMK A01 T00-000-6  RH  096%=      5-min Rain = 0
KAM3 190354Z 36024KT 00/01 A3003 RMK A01 T000000-7  RH  095%=      5-min Rain = 0
KAM3 190355Z 36025KT 00/01 A3003 RMK A01 T00-000-8  RH  094%=      5-min Rain = 0
KAM3 190356Z 36024G30KT 00/01 A3003 RMK A01 T000000-8  RH  094%=      5-min Rain = 0
KAM3 190357Z 00022G27KT 00/01 A3003 RMK A01 T000000-8  RH  094%=      5-min Rain = 0
KAM3 190358Z 00018KT 00/01 A3003 RMK A01 T00-000-8  RH  095%=      5-min Rain = 0
KAM3 190359Z 01017G22KT M00/M01 A3003 RMK A01 T10011007  RH  096%=      5-min Rain = 0
KAM3 190400Z 00021KT M00/M01 A3003 RMK A01 T10011006  RH  096%=      5-min Rain = 0
KAM3 190401Z 01018G23KT M00/M01 A3003 RMK A01 T10011006  RH  096%=      5-min Rain = 0
KAM3 190402Z 00024G29KT M00/M01 A3003 RMK A01 T10011006  RH  097%=      5-min Rain = 0
KAM3 190403Z 36024KT M00/M01 A3003 RMK A01 T10011005  RH  097%=      5-min Rain = 0
KAM3 190404Z 00022G27KT M00/M01 A3003 RMK A01 T10021006  RH  097%=      5-min Rain = 0
KAM3 190405Z 00020KT M00/M01 A3003 RMK A01 T10021005  RH  098%=      5-min Rain = 0
KAM3 190406Z 00018KT M00/M00 A3003 RMK A01 T10021004  RH  098%=      5-min Rain = 0
KAM3 190407Z 00016G22KT M00/M00 A3003 RMK A01 T10021003  RH  099%=      5-min Rain = 0
KAM3 190408Z 01019KT M00/M00 A3003 RMK A01 T10031003  RH  100%=      5-min Rain = 0
KAM3 190409Z 01019G25KT M00/M00 A3003 RMK A01 T10031003  RH  100%=      5-min Rain = 0
KAM3 190410Z 01021KT M00/M00 A3003 RMK A01 T10031003  RH  100%=      5-min Rain = 0
KAM3 190411Z 00017KT M00/M00 A3003 RMK A01 T10031003  RH  100%=      5-min Rain = 0
KAM3 190412Z 01020KT M00/M00 A3003 RMK A01 T10031003  RH  100%=      5-min Rain = 0
KAM3 190413Z 01022KT M00/M00 A3003 RMK A01 T10031003  RH  100%=      5-min Rain = 0
KAM3 190414Z 01016KT M00/M00 A3003 RMK A01 T10031004  RH  099%=      5-min Rain = 0
KAM3 190415Z 01020KT M00/M00 A3003 RMK A01 T10031003  RH  100%=      5-min Rain = 0
KAM3 190416Z 01018KT M00/M00 A3003 RMK A01 T10031003  RH  100%=      5-min Rain = 0
KAM3 190417Z 00018KT M00/M00 A3003 RMK A01 T10031004  RH  100%=      5-min Rain = 0
KAM3 190418Z 01019KT M00/M00 A3003 RMK A01 T10031003  RH  100%=      5-min Rain = 0
KAM3 190419Z 01015KT M00/M00 A3003 RMK A01 T10031004  RH  099%=      5-min Rain = 0
KAM3 190420Z 01016KT M00/M00 A3004 RMK A01 T10031004  RH  100%=      5-min Rain = 0
KAM3 190421Z 01014KT M00/M00 A3003 RMK A01 T10031003  RH  100%=      5-min Rain = 0
KAM3 190422Z 00015KT M00/M00 A3004 RMK A01 T10031003  RH  100%=      5-min Rain = 0
KAM3 190423Z 00017KT M00/M00 A3004 RMK A01 T10031003  RH  100%=      5-min Rain = 0
KAM3 190424Z 00013KT M00/M00 A3004 RMK A01 T10031003  RH  100%=      5-min Rain = 0
KAM3 190425Z 00014G20KT M00/M00 A3004 RMK A01 T10021002  RH  100%=      5-min Rain = 0
KAM3 190426Z 36015KT M00/M00 A3004 RMK A01 T10021002  RH  100%=      5-min Rain = 0
KAM3 190427Z 36015KT M00/M00 A3004 RMK A01 T10021002  RH  100%=      5-min Rain = 0
KAM3 190428Z 36017KT M00/M00 A3004 RMK A01 T10021002  RH  100%=      5-min Rain = 0
KAM3 190429Z 36015KT M00/M00 A3004 RMK A01 T10021002  RH  099%=      5-min Rain = 0
KAM3 190430Z 00013KT M00/M00 A3004 RMK A01 T10021003  RH  099%=      5-min Rain = 0
KAM3 190431Z 00016KT M00/M00 A3004 RMK A01 T10011003  RH  099%=      5-min Rain = 0
KAM3 190432Z 36014KT M00/M00 A3004 RMK A01 T10011003  RH  099%=      5-min Rain = 0
KAM3 190433Z 36014KT M00/M00 A3004 RMK A01 T10011002  RH  099%=      5-min Rain = 0
KAM3 190434Z 35013KT M00/M00 A3004 RMK A01 T10011003  RH  099%=      5-min Rain = 0
KAM3 190435Z 36012KT M00/M00 A3004 RMK A01 T10011003  RH  099%=      5-min Rain = 0
KAM3 190436Z 35012KT M00/M00 A3004 RMK A01 T10011002  RH  099%=      5-min Rain = 0
KAM3 190437Z 35012KT M00/M00 A3004 RMK A01 T10011002  RH  100%=      5-min Rain = 0
KAM3 190438Z 34014KT M00/M00 A3004 RMK A01 T10011002  RH  100%=      5-min Rain = 0
KAM3 190439Z 35013KT M00/M00 A3004 RMK A01 T10011001  RH  100%=      5-min Rain = 0
KAM3 190440Z 35016KT 00/00 A3004 RMK A01 T00-000-1  RH  099%=      5-min Rain = 0
KAM3 190441Z 34015KT 00/00 A3004 RMK A01 T000000-2  RH  099%=      5-min Rain = 0
KAM3 190442Z 35013KT 00/00 A3005 RMK A01 T000000-2  RH  098%=      5-min Rain = 0
KAM3 190443Z 34014G21KT 00/M00 A3005 RMK A01 T00011002  RH  098%=      5-min Rain = 0
KAM3 190444Z 34015KT 00/M00 A3005 RMK A01 T00011002  RH  098%=      5-min Rain = 0
KAM3 190445Z 33024G30KT 00/M00 A3005 RMK A01 T00011003  RH  097%=      5-min Rain = 0
KAM3 190446Z 34026KT 00/M01 A3005 RMK A01 T00011007  RH  094%=      5-min Rain = 0
KAM3 190447Z 35022G27KT 00/M01 A3005 RMK A01 T00021009  RH  093%=      5-min Rain = 0
KAM3 190448Z 34022G27KT 00/M01 A3005 RMK A01 T00021011  RH  091%=      5-min Rain = 0
KAM3 190449Z 35021KT 00/M01 A3005 RMK A01 T00021012  RH  090%=      5-min Rain = 0
KAM3 190450Z 35023KT 00/M01 A3005 RMK A01 T00021013  RH  090%=      5-min Rain = 0
KAM3 190451Z 35026G31KT 00/M01 A3005 RMK A01 T00021013  RH  089%=      5-min Rain = 0
KAM3 190452Z 35024KT 00/M02 A3005 RMK A01 T00021015  RH  089%=      5-min Rain = 0
KAM3 190453Z 35024G29KT 00/M01 A3005 RMK A01 T00021014  RH  089%=      5-min Rain = 0
KAM3 190454Z 36023KT 00/M02 A3006 RMK A01 T00021015  RH  089%=      5-min Rain = 0
KAM3 190455Z 36021G26KT 00/M02 A3006 RMK A01 T00021015  RH  089%=      5-min Rain = 0
KAM3 190456Z 35021KT 00/M02 A3006 RMK A01 T00011015  RH  089%=      5-min Rain = 0
KAM3 190457Z 36021KT 00/M01 A3006 RMK A01 T00011014  RH  089%=      5-min Rain = 0
KAM3 190458Z 35018KT 00/M01 A3006 RMK A01 T00011014  RH  090%=      5-min Rain = 0
KAM3 190459Z 35018KT 00/M01 A3006 RMK A01 T00011013  RH  090%=      5-min Rain = 0
KAM3 190500Z 36020G25KT 00/M01 A3006 RMK A01 T00011013  RH  090%=      5-min Rain = 0
KAM3 190501Z 35019KT 00/M01 A3006 RMK A01 T00011013  RH  090%=      5-min Rain = 0
KAM3 190502Z 36018KT 00/M01 A3006 RMK A01 T00011014  RH  090%=      5-min Rain = 0
KAM3 190503Z 36019KT 00/M01 A3006 RMK A01 T00011014  RH  090%=      5-min Rain = 0
KAM3 190504Z 35019KT 00/M01 A3006 RMK A01 T00011014  RH  090%=      5-min Rain = 0
KAM3 190505Z 35019G24KT 00/M01 A3006 RMK A01 T00011013  RH  090%=      5-min Rain = 0
KAM3 190506Z 35019KT 00/M01 A3006 RMK A01 T00011014  RH  090%=      5-min Rain = 0
KAM3 190507Z 35016KT 00/M01 A3007 RMK A01 T00011014  RH  089%=      5-min Rain = 0
KAM3 190508Z 35016KT 00/M01 A3007 RMK A01 T00021014  RH  090%=      5-min Rain = 0
KAM3 190509Z 35018G23KT 00/M01 A3007 RMK A01 T00011013  RH  090%=      5-min Rain = 0
KAM3 190510Z 36020G25KT 00/M01 A3007 RMK A01 T00011013  RH  090%=      5-min Rain = 0
KAM3 190511Z 36022KT 00/M02 A3007 RMK A01 T00011015  RH  089%=      5-min Rain = 0
KAM3 190512Z 35021G26KT 00/M02 A3007 RMK A01 T00011016  RH  088%=      5-min Rain = 0
KAM3 190513Z 35021G26KT 00/M02 A3007 RMK A01 T00021017  RH  087%=      5-min Rain = 0
KAM3 190514Z 35020KT 00/M02 A3007 RMK A01 T00011018  RH  087%=      5-min Rain = 0
KAM3 190515Z 35018KT 00/M02 A3007 RMK A01 T00011018  RH  087%=      5-min Rain = 0
KAM3 190516Z 36017KT 00/M02 A3007 RMK A01 T00011018  RH  087%=      5-min Rain = 0
KAM3 190517Z 36016KT 00/02 A3007 RMK A01 T00000-18  RH  088%=      5-min Rain = 0
KAM3 190518Z 35016KT 00/02 A3007 RMK A01 T00-00-18  RH  088%=      5-min Rain = 0
KAM3 190519Z 36015KT 00/02 A3007 RMK A01 T00-00-17  RH  089%=      5-min Rain = 0
KAM3 190520Z 35016KT 00/02 A3007 RMK A01 T00-00-16  RH  089%=      5-min Rain = 0
KAM3 190521Z 35016KT 00/02 A3007 RMK A01 T00-00-16  RH  089%=      5-min Rain = 0
KAM3 190522Z 35018KT 00/02 A3007 RMK A01 T00-00-16  RH  089%=      5-min Rain = 0
KAM3 190523Z 35015KT 00/02 A3007 RMK A01 T00000-16  RH  089%=      5-min Rain = 0
KAM3 190524Z 35017KT 00/02 A3008 RMK A01 T00000-16  RH  089%=      5-min Rain = 0
KAM3 190525Z 35017KT 00/M02 A3008 RMK A01 T00011016  RH  089%=      5-min Rain = 0
KAM3 190526Z 35017KT 00/02 A3008 RMK A01 T00000-16  RH  089%=      5-min Rain = 0
KAM3 190527Z 35017KT 00/02 A3008 RMK A01 T00000-16  RH  089%=      5-min Rain = 0
KAM3 190528Z 35019G24KT 00/02 A3008 RMK A01 T00000-16  RH  089%=      5-min Rain = 0
KAM3 190529Z 34021G27KT 00/M02 A3008 RMK A01 T00011016  RH  089%=      5-min Rain = 0
KAM3 190530Z 35025KT 00/M02 A3008 RMK A01 T00011017  RH  088%=      5-min Rain = 0
KAM3 190531Z 35024KT 00/M02 A3008 RMK A01 T00021018  RH  087%=      5-min Rain = 0
KAM3 190532Z 35024G29KT 00/M02 A3008 RMK A01 T00011019  RH  086%=      5-min Rain = 0
KAM3 190533Z 35023KT 00/M02 A3009 RMK A01 T00011019  RH  086%=      5-min Rain = 0
KAM3 190534Z 35026KT 00/M02 A3009 RMK A01 T00011020  RH  086%=      5-min Rain = 0
KAM3 190535Z 35020KT 00/M02 A3009 RMK A01 T00011020  RH  086%=      5-min Rain = 0
KAM3 190536Z 34026G32KT 00/M02 A3009 RMK A01 T00011020  RH  086%=      5-min Rain = 0
KAM3 190537Z 34023G28KT 00/M02 A3009 RMK A01 T00011021  RH  085%=      5-min Rain = 0
KAM3 190538Z 35025G30KT 00/M02 A3009 RMK A01 T00011021  RH  085%=      5-min Rain = 0
KAM3 190539Z 35027G32KT 00/M02 A3009 RMK A01 T00011021  RH  085%=      5-min Rain = 0
KAM3 190540Z 35026G34KT 00/M02 A3009 RMK A01 T00011022  RH  085%=      5-min Rain = 0
KAM3 190541Z 36026G31KT 00/02 A3009 RMK A01 T00000-23  RH  085%=      5-min Rain = 0
KAM3 190542Z 35026KT 00/02 A3009 RMK A01 T00000-23  RH  085%=      5-min Rain = 0
KAM3 190543Z 35026G31KT 00/02 A3009 RMK A01 T00-00-22  RH  085%=      5-min Rain = 0
KAM3 190544Z 35023G29KT 00/02 A3009 RMK A01 T00-00-22  RH  085%=      5-min Rain = 0
KAM3 190545Z 35025KT 00/02 A3009 RMK A01 T00-00-22  RH  085%=      5-min Rain = 0
KAM3 190546Z 35022G27KT M00/M02 A3009 RMK A01 T10011023  RH  085%=      5-min Rain = 0
KAM3 190547Z 35019KT M00/M02 A3009 RMK A01 T10011023  RH  085%=      5-min Rain = 0
KAM3 190548Z 35026G31KT M00/M02 A3009 RMK A01 T10021023  RH  086%=      5-min Rain = 0
KAM3 190549Z 35023G31KT M00/M02 A3009 RMK A01 T10021024  RH  085%=      5-min Rain = 0
KAM3 190550Z 35027G35KT M00/M03 A3009 RMK A01 T10021025  RH  085%=      5-min Rain = 0
KAM3 190551Z 35027G33KT M00/M03 A3009 RMK A01 T10021025  RH  084%=      5-min Rain = 0
KAM3 190552Z 35025G30KT M00/M03 A3009 RMK A01 T10021026  RH  084%=      5-min Rain = 0
KAM3 190553Z 35023KT M00/M03 A3009 RMK A01 T10021025  RH  084%=      5-min Rain = 0
KAM3 190554Z 35019KT M00/M03 A301 RMK A01 T10021025  RH  084%=      5-min Rain = 0
KAM3 190555Z 35018KT M00/M03 A301 RMK A01 T10031026  RH  085%=      5-min Rain = 0
KAM3 190556Z 35019KT M00/M03 A301 RMK A01 T10031025  RH  085%=      5-min Rain = 0
KAM3 190557Z 35021G26KT M00/M03 A301 RMK A01 T10041025  RH  086%=      5-min Rain = 0
KAM3 190558Z 34019G26KT M00/M03 A301 RMK A01 T10041025  RH  086%=      5-min Rain = 0
KAM3 190559Z 35019KT M00/M03 A301 RMK A01 T10041026  RH  085%=      5-min Rain = 0

Page generated in 0.0333 seconds.